<?xml version="1.0" encoding="UTF-8" standalone="no" ?>
<gpx xmlns="http://www.topografix.com/GPX/1/1" xmlns:xsi="http://www.w3.org/2001/XMLSchema-instance" xsi:schemaLocation="http://www.topografix.com/GPX/1/1 http://www.topografix.com/GPX/1/1/gpx.xsd" version="1.1" creator="VisuGPX - https://www.visugpx.com">
  <metadata>
    <name>PlougasnouRoscoff57</name>
  </metadata>
  <trk>
    <name><![CDATA[PlougasnouRoscoff57_1]]></name>
    <extensions>
      <line xmlns="http://www.topografix.com/GPX/gpx_style/0/2">
        <color>0000FF</color>
        <width>4</width>
      </line>
    </extensions>
    <trkseg>
      <trkpt lat="48.69566" lon="-3.79209">
        <ele>79</ele>
        <time>2021-03-30T08:47:08Z</time>
      </trkpt>
      <trkpt lat="48.69563" lon="-3.79198">
        <ele>79</ele>
        <time>2021-03-30T08:47:09Z</time>
      </trkpt>
      <trkpt lat="48.69583" lon="-3.79186">
        <ele>79</ele>
        <time>2021-03-30T08:47:13Z</time>
      </trkpt>
      <trkpt lat="48.69607" lon="-3.79166">
        <ele>79</ele>
        <time>2021-03-30T08:47:18Z</time>
      </trkpt>
      <trkpt lat="48.69633" lon="-3.79172">
        <ele>79</ele>
        <time>2021-03-30T08:47:23Z</time>
      </trkpt>
      <trkpt lat="48.69641" lon="-3.79232">
        <ele>80</ele>
        <time>2021-03-30T08:47:30Z</time>
      </trkpt>
      <trkpt lat="48.69647" lon="-3.79254">
        <ele>80</ele>
        <time>2021-03-30T08:47:33Z</time>
      </trkpt>
      <trkpt lat="48.69664" lon="-3.79287">
        <ele>80</ele>
        <time>2021-03-30T08:47:38Z</time>
      </trkpt>
      <trkpt lat="48.69694" lon="-3.79407">
        <ele>83</ele>
        <time>2021-03-30T08:47:53Z</time>
      </trkpt>
      <trkpt lat="48.69754" lon="-3.79524">
        <ele>85</ele>
        <time>2021-03-30T08:48:10Z</time>
      </trkpt>
      <trkpt lat="48.69799" lon="-3.79624">
        <ele>86</ele>
        <time>2021-03-30T08:48:24Z</time>
      </trkpt>
      <trkpt lat="48.69815" lon="-3.79689">
        <ele>87</ele>
        <time>2021-03-30T08:48:33Z</time>
      </trkpt>
      <trkpt lat="48.69834" lon="-3.79787">
        <ele>88</ele>
        <time>2021-03-30T08:48:45Z</time>
      </trkpt>
      <trkpt lat="48.69853" lon="-3.79851">
        <ele>87</ele>
        <time>2021-03-30T08:48:53Z</time>
      </trkpt>
      <trkpt lat="48.69867" lon="-3.79892">
        <ele>86</ele>
        <time>2021-03-30T08:48:58Z</time>
      </trkpt>
      <trkpt lat="48.69885" lon="-3.79924">
        <ele>86</ele>
        <time>2021-03-30T08:49:03Z</time>
      </trkpt>
      <trkpt lat="48.69891" lon="-3.79933">
        <ele>85</ele>
        <time>2021-03-30T08:49:05Z</time>
      </trkpt>
      <trkpt lat="48.69912" lon="-3.79951">
        <ele>84</ele>
        <time>2021-03-30T08:49:09Z</time>
      </trkpt>
      <trkpt lat="48.69997" lon="-3.79999">
        <ele>81</ele>
        <time>2021-03-30T08:49:25Z</time>
      </trkpt>
      <trkpt lat="48.70047" lon="-3.80039">
        <ele>76</ele>
        <time>2021-03-30T08:49:35Z</time>
      </trkpt>
      <trkpt lat="48.70057" lon="-3.8005">
        <ele>76</ele>
        <time>2021-03-30T08:49:37Z</time>
      </trkpt>
      <trkpt lat="48.7008" lon="-3.80088">
        <ele>73</ele>
        <time>2021-03-30T08:49:43Z</time>
      </trkpt>
      <trkpt lat="48.70116" lon="-3.80179">
        <ele>72</ele>
        <time>2021-03-30T08:49:56Z</time>
      </trkpt>
      <trkpt lat="48.70144" lon="-3.80159">
        <ele>71</ele>
        <time>2021-03-30T08:50:01Z</time>
      </trkpt>
      <trkpt lat="48.70226" lon="-3.80095">
        <ele>67</ele>
        <time>2021-03-30T08:50:18Z</time>
      </trkpt>
      <trkpt lat="48.7028" lon="-3.8004">
        <ele>65</ele>
        <time>2021-03-30T08:50:29Z</time>
      </trkpt>
      <trkpt lat="48.70293" lon="-3.80038">
        <ele>65</ele>
        <time>2021-03-30T08:50:32Z</time>
      </trkpt>
      <trkpt lat="48.70308" lon="-3.8004">
        <ele>66</ele>
        <time>2021-03-30T08:50:34Z</time>
      </trkpt>
      <trkpt lat="48.70327" lon="-3.80051">
        <ele>66</ele>
        <time>2021-03-30T08:50:38Z</time>
      </trkpt>
      <trkpt lat="48.70336" lon="-3.80052">
        <ele>67</ele>
        <time>2021-03-30T08:50:40Z</time>
      </trkpt>
      <trkpt lat="48.70348" lon="-3.80047">
        <ele>66</ele>
        <time>2021-03-30T08:50:42Z</time>
      </trkpt>
      <trkpt lat="48.70425" lon="-3.79965">
        <ele>63</ele>
        <time>2021-03-30T08:50:58Z</time>
      </trkpt>
      <trkpt lat="48.70432" lon="-3.79959">
        <ele>63</ele>
        <time>2021-03-30T08:51:00Z</time>
      </trkpt>
      <trkpt lat="48.70438" lon="-3.79957">
        <ele>63</ele>
        <time>2021-03-30T08:51:01Z</time>
      </trkpt>
      <trkpt lat="48.70442" lon="-3.79957">
        <ele>63</ele>
        <time>2021-03-30T08:51:02Z</time>
      </trkpt>
      <trkpt lat="48.70451" lon="-3.79965">
        <ele>63</ele>
        <time>2021-03-30T08:51:04Z</time>
      </trkpt>
      <trkpt lat="48.7046" lon="-3.79982">
        <ele>63</ele>
        <time>2021-03-30T08:51:06Z</time>
      </trkpt>
      <trkpt lat="48.70517" lon="-3.80103">
        <ele>64</ele>
        <time>2021-03-30T08:51:24Z</time>
      </trkpt>
      <trkpt lat="48.70526" lon="-3.80119">
        <ele>64</ele>
        <time>2021-03-30T08:51:26Z</time>
      </trkpt>
      <trkpt lat="48.70574" lon="-3.8017">
        <ele>63</ele>
        <time>2021-03-30T08:51:37Z</time>
      </trkpt>
      <trkpt lat="48.70604" lon="-3.80209">
        <ele>63</ele>
        <time>2021-03-30T08:51:44Z</time>
      </trkpt>
      <trkpt lat="48.7063" lon="-3.80248">
        <ele>62</ele>
        <time>2021-03-30T08:51:50Z</time>
      </trkpt>
      <trkpt lat="48.70672" lon="-3.80319">
        <ele>63</ele>
        <time>2021-03-30T08:52:01Z</time>
      </trkpt>
      <trkpt lat="48.70687" lon="-3.80342">
        <ele>63</ele>
        <time>2021-03-30T08:52:05Z</time>
      </trkpt>
      <trkpt lat="48.70692" lon="-3.80347">
        <ele>63</ele>
        <time>2021-03-30T08:52:06Z</time>
      </trkpt>
      <trkpt lat="48.70706" lon="-3.80353">
        <ele>63</ele>
        <time>2021-03-30T08:52:09Z</time>
      </trkpt>
      <trkpt lat="48.70738" lon="-3.80355">
        <ele>61</ele>
        <time>2021-03-30T08:52:14Z</time>
      </trkpt>
      <trkpt lat="48.70751" lon="-3.80361">
        <ele>61</ele>
        <time>2021-03-30T08:52:17Z</time>
      </trkpt>
      <trkpt lat="48.70759" lon="-3.80371">
        <ele>61</ele>
        <time>2021-03-30T08:52:19Z</time>
      </trkpt>
      <trkpt lat="48.70766" lon="-3.80376">
        <ele>60</ele>
        <time>2021-03-30T08:52:20Z</time>
      </trkpt>
      <trkpt lat="48.7078" lon="-3.8038">
        <ele>59</ele>
        <time>2021-03-30T08:52:23Z</time>
      </trkpt>
      <trkpt lat="48.70792" lon="-3.8038">
        <ele>57</ele>
        <time>2021-03-30T08:52:25Z</time>
      </trkpt>
      <trkpt lat="48.708" lon="-3.80377">
        <ele>56</ele>
        <time>2021-03-30T08:52:26Z</time>
      </trkpt>
      <trkpt lat="48.70874" lon="-3.80315">
        <ele>47</ele>
        <time>2021-03-30T08:52:41Z</time>
      </trkpt>
      <trkpt lat="48.70963" lon="-3.8027">
        <ele>40</ele>
        <time>2021-03-30T08:52:58Z</time>
      </trkpt>
      <trkpt lat="48.70969" lon="-3.80269">
        <ele>39</ele>
        <time>2021-03-30T08:52:59Z</time>
      </trkpt>
      <trkpt lat="48.70988" lon="-3.80274">
        <ele>38</ele>
        <time>2021-03-30T08:53:02Z</time>
      </trkpt>
      <trkpt lat="48.71005" lon="-3.80291">
        <ele>37</ele>
        <time>2021-03-30T08:53:06Z</time>
      </trkpt>
      <trkpt lat="48.71019" lon="-3.80294">
        <ele>35</ele>
        <time>2021-03-30T08:53:09Z</time>
      </trkpt>
      <trkpt lat="48.71039" lon="-3.80294">
        <ele>32</ele>
        <time>2021-03-30T08:53:12Z</time>
      </trkpt>
      <trkpt lat="48.71046" lon="-3.80292">
        <ele>31</ele>
        <time>2021-03-30T08:53:13Z</time>
      </trkpt>
      <trkpt lat="48.71053" lon="-3.80283">
        <ele>30</ele>
        <time>2021-03-30T08:53:15Z</time>
      </trkpt>
      <trkpt lat="48.71059" lon="-3.8028">
        <ele>29</ele>
        <time>2021-03-30T08:53:16Z</time>
      </trkpt>
      <trkpt lat="48.71062" lon="-3.80281">
        <ele>29</ele>
        <time>2021-03-30T08:53:17Z</time>
      </trkpt>
      <trkpt lat="48.71065" lon="-3.80286">
        <ele>28</ele>
        <time>2021-03-30T08:53:17Z</time>
      </trkpt>
      <trkpt lat="48.71066" lon="-3.80297">
        <ele>28</ele>
        <time>2021-03-30T08:53:19Z</time>
      </trkpt>
      <trkpt lat="48.71064" lon="-3.80342">
        <ele>27</ele>
        <time>2021-03-30T08:53:24Z</time>
      </trkpt>
      <trkpt lat="48.7105" lon="-3.80429">
        <ele>23</ele>
        <time>2021-03-30T08:53:35Z</time>
      </trkpt>
      <trkpt lat="48.71047" lon="-3.80453">
        <ele>22</ele>
        <time>2021-03-30T08:53:37Z</time>
      </trkpt>
      <trkpt lat="48.71047" lon="-3.80474">
        <ele>21</ele>
        <time>2021-03-30T08:53:40Z</time>
      </trkpt>
      <trkpt lat="48.7105" lon="-3.80493">
        <ele>19</ele>
        <time>2021-03-30T08:53:42Z</time>
      </trkpt>
      <trkpt lat="48.71053" lon="-3.80504">
        <ele>18</ele>
        <time>2021-03-30T08:53:44Z</time>
      </trkpt>
      <trkpt lat="48.71057" lon="-3.80513">
        <ele>17</ele>
        <time>2021-03-30T08:53:45Z</time>
      </trkpt>
      <trkpt lat="48.71091" lon="-3.80561">
        <ele>8</ele>
        <time>2021-03-30T08:53:53Z</time>
      </trkpt>
      <trkpt lat="48.71106" lon="-3.80597">
        <ele>6</ele>
        <time>2021-03-30T08:53:58Z</time>
      </trkpt>
      <trkpt lat="48.71116" lon="-3.80636">
        <ele>6</ele>
        <time>2021-03-30T08:54:03Z</time>
      </trkpt>
      <trkpt lat="48.7113" lon="-3.80716">
        <ele>5</ele>
        <time>2021-03-30T08:54:13Z</time>
      </trkpt>
      <trkpt lat="48.71144" lon="-3.80783">
        <ele>4</ele>
        <time>2021-03-30T08:54:21Z</time>
      </trkpt>
      <trkpt lat="48.71158" lon="-3.80838">
        <ele>4</ele>
        <time>2021-03-30T08:54:28Z</time>
      </trkpt>
      <trkpt lat="48.71204" lon="-3.80991">
        <ele>3</ele>
        <time>2021-03-30T08:54:48Z</time>
      </trkpt>
      <trkpt lat="48.71275" lon="-3.81203">
        <ele>5</ele>
        <time>2021-03-30T08:55:16Z</time>
      </trkpt>
      <trkpt lat="48.713" lon="-3.81268">
        <ele>6</ele>
        <time>2021-03-30T08:55:24Z</time>
      </trkpt>
      <trkpt lat="48.71302" lon="-3.81279">
        <ele>7</ele>
        <time>2021-03-30T08:55:26Z</time>
      </trkpt>
      <trkpt lat="48.71301" lon="-3.81294">
        <ele>7</ele>
        <time>2021-03-30T08:55:28Z</time>
      </trkpt>
      <trkpt lat="48.71298" lon="-3.81301">
        <ele>7</ele>
        <time>2021-03-30T08:55:29Z</time>
      </trkpt>
      <trkpt lat="48.71265" lon="-3.81349">
        <ele>9</ele>
        <time>2021-03-30T08:55:37Z</time>
      </trkpt>
      <trkpt lat="48.71253" lon="-3.81373">
        <ele>9</ele>
        <time>2021-03-30T08:55:40Z</time>
      </trkpt>
      <trkpt lat="48.71235" lon="-3.81447">
        <ele>9</ele>
        <time>2021-03-30T08:55:49Z</time>
      </trkpt>
      <trkpt lat="48.71207" lon="-3.81603">
        <ele>8</ele>
        <time>2021-03-30T08:56:08Z</time>
      </trkpt>
      <trkpt lat="48.71193" lon="-3.81639">
        <ele>7</ele>
        <time>2021-03-30T08:56:13Z</time>
      </trkpt>
      <trkpt lat="48.71179" lon="-3.8166">
        <ele>6</ele>
        <time>2021-03-30T08:56:17Z</time>
      </trkpt>
      <trkpt lat="48.71171" lon="-3.81668">
        <ele>5</ele>
        <time>2021-03-30T08:56:19Z</time>
      </trkpt>
      <trkpt lat="48.7116" lon="-3.81677">
        <ele>5</ele>
        <time>2021-03-30T08:56:21Z</time>
      </trkpt>
      <trkpt lat="48.71114" lon="-3.817">
        <ele>7</ele>
        <time>2021-03-30T08:56:29Z</time>
      </trkpt>
      <trkpt lat="48.71103" lon="-3.81705">
        <ele>8</ele>
        <time>2021-03-30T08:56:31Z</time>
      </trkpt>
      <trkpt lat="48.71083" lon="-3.81721">
        <ele>8</ele>
        <time>2021-03-30T08:56:35Z</time>
      </trkpt>
      <trkpt lat="48.71063" lon="-3.81747">
        <ele>9</ele>
        <time>2021-03-30T08:56:40Z</time>
      </trkpt>
      <trkpt lat="48.71046" lon="-3.81781">
        <ele>8</ele>
        <time>2021-03-30T08:56:45Z</time>
      </trkpt>
      <trkpt lat="48.71012" lon="-3.81856">
        <ele>6</ele>
        <time>2021-03-30T08:56:56Z</time>
      </trkpt>
      <trkpt lat="48.71003" lon="-3.81871">
        <ele>6</ele>
        <time>2021-03-30T08:56:58Z</time>
      </trkpt>
      <trkpt lat="48.70998" lon="-3.81876">
        <ele>6</ele>
        <time>2021-03-30T08:56:59Z</time>
      </trkpt>
      <trkpt lat="48.70991" lon="-3.81881">
        <ele>6</ele>
        <time>2021-03-30T08:57:01Z</time>
      </trkpt>
      <trkpt lat="48.70977" lon="-3.81888">
        <ele>6</ele>
        <time>2021-03-30T08:57:03Z</time>
      </trkpt>
      <trkpt lat="48.70968" lon="-3.81893">
        <ele>7</ele>
        <time>2021-03-30T08:57:05Z</time>
      </trkpt>
      <trkpt lat="48.70934" lon="-3.81912">
        <ele>8</ele>
        <time>2021-03-30T08:57:11Z</time>
      </trkpt>
      <trkpt lat="48.70854" lon="-3.82001">
        <ele>11</ele>
        <time>2021-03-30T08:57:29Z</time>
      </trkpt>
      <trkpt lat="48.70845" lon="-3.82009">
        <ele>12</ele>
        <time>2021-03-30T08:57:31Z</time>
      </trkpt>
      <trkpt lat="48.70824" lon="-3.82019">
        <ele>13</ele>
        <time>2021-03-30T08:57:35Z</time>
      </trkpt>
      <trkpt lat="48.70813" lon="-3.82021">
        <ele>13</ele>
        <time>2021-03-30T08:57:37Z</time>
      </trkpt>
      <trkpt lat="48.70799" lon="-3.82021">
        <ele>13</ele>
        <time>2021-03-30T08:57:39Z</time>
      </trkpt>
      <trkpt lat="48.70791" lon="-3.8202">
        <ele>13</ele>
        <time>2021-03-30T08:57:41Z</time>
      </trkpt>
      <trkpt lat="48.70775" lon="-3.82016">
        <ele>14</ele>
        <time>2021-03-30T08:57:44Z</time>
      </trkpt>
      <trkpt lat="48.70734" lon="-3.82004">
        <ele>16</ele>
        <time>2021-03-30T08:57:51Z</time>
      </trkpt>
      <trkpt lat="48.70702" lon="-3.81995">
        <ele>19</ele>
        <time>2021-03-30T08:57:57Z</time>
      </trkpt>
      <trkpt lat="48.70564" lon="-3.81991">
        <ele>24</ele>
        <time>2021-03-30T08:58:21Z</time>
      </trkpt>
      <trkpt lat="48.70526" lon="-3.81989">
        <ele>23</ele>
        <time>2021-03-30T08:58:28Z</time>
      </trkpt>
      <trkpt lat="48.70512" lon="-3.81989">
        <ele>22</ele>
        <time>2021-03-30T08:58:31Z</time>
      </trkpt>
      <trkpt lat="48.70457" lon="-3.81986">
        <ele>20</ele>
        <time>2021-03-30T08:58:40Z</time>
      </trkpt>
      <trkpt lat="48.70428" lon="-3.81985">
        <ele>19</ele>
        <time>2021-03-30T08:58:46Z</time>
      </trkpt>
      <trkpt lat="48.7041" lon="-3.81982">
        <ele>19</ele>
        <time>2021-03-30T08:58:49Z</time>
      </trkpt>
      <trkpt lat="48.70365" lon="-3.81971">
        <ele>21</ele>
        <time>2021-03-30T08:58:57Z</time>
      </trkpt>
      <trkpt lat="48.70358" lon="-3.8197">
        <ele>21</ele>
        <time>2021-03-30T08:58:58Z</time>
      </trkpt>
      <trkpt lat="48.70349" lon="-3.81969">
        <ele>22</ele>
        <time>2021-03-30T08:59:00Z</time>
      </trkpt>
      <trkpt lat="48.70349" lon="-3.81972">
        <ele>21</ele>
        <time>2021-03-30T08:59:00Z</time>
      </trkpt>
      <trkpt lat="48.70346" lon="-3.81977">
        <ele>20</ele>
        <time>2021-03-30T08:59:01Z</time>
      </trkpt>
      <trkpt lat="48.7034" lon="-3.8198">
        <ele>20</ele>
        <time>2021-03-30T08:59:02Z</time>
      </trkpt>
      <trkpt lat="48.70338" lon="-3.81979">
        <ele>20</ele>
        <time>2021-03-30T08:59:02Z</time>
      </trkpt>
      <trkpt lat="48.70336" lon="-3.81977">
        <ele>20</ele>
        <time>2021-03-30T08:59:03Z</time>
      </trkpt>
      <trkpt lat="48.7033" lon="-3.81983">
        <ele>19</ele>
        <time>2021-03-30T08:59:04Z</time>
      </trkpt>
      <trkpt lat="48.70325" lon="-3.81985">
        <ele>19</ele>
        <time>2021-03-30T08:59:05Z</time>
      </trkpt>
      <trkpt lat="48.70304" lon="-3.81986">
        <ele>18</ele>
        <time>2021-03-30T08:59:09Z</time>
      </trkpt>
      <trkpt lat="48.70291" lon="-3.81981">
        <ele>19</ele>
        <time>2021-03-30T08:59:11Z</time>
      </trkpt>
      <trkpt lat="48.70274" lon="-3.81971">
        <ele>19</ele>
        <time>2021-03-30T08:59:14Z</time>
      </trkpt>
      <trkpt lat="48.70172" lon="-3.81891">
        <ele>18</ele>
        <time>2021-03-30T08:59:35Z</time>
      </trkpt>
      <trkpt lat="48.70147" lon="-3.81881">
        <ele>17</ele>
        <time>2021-03-30T08:59:40Z</time>
      </trkpt>
      <trkpt lat="48.70131" lon="-3.81882">
        <ele>16</ele>
        <time>2021-03-30T08:59:42Z</time>
      </trkpt>
      <trkpt lat="48.70111" lon="-3.81889">
        <ele>13</ele>
        <time>2021-03-30T08:59:46Z</time>
      </trkpt>
      <trkpt lat="48.70093" lon="-3.81904">
        <ele>11</ele>
        <time>2021-03-30T08:59:50Z</time>
      </trkpt>
      <trkpt lat="48.70077" lon="-3.81926">
        <ele>9</ele>
        <time>2021-03-30T08:59:54Z</time>
      </trkpt>
      <trkpt lat="48.70068" lon="-3.81945">
        <ele>8</ele>
        <time>2021-03-30T08:59:56Z</time>
      </trkpt>
      <trkpt lat="48.70063" lon="-3.8196">
        <ele>8</ele>
        <time>2021-03-30T08:59:58Z</time>
      </trkpt>
      <trkpt lat="48.70059" lon="-3.81973">
        <ele>8</ele>
        <time>2021-03-30T09:00:00Z</time>
      </trkpt>
      <trkpt lat="48.70057" lon="-3.8198">
        <ele>8</ele>
        <time>2021-03-30T09:00:01Z</time>
      </trkpt>
      <trkpt lat="48.70055" lon="-3.82008">
        <ele>8</ele>
        <time>2021-03-30T09:00:04Z</time>
      </trkpt>
      <trkpt lat="48.70056" lon="-3.82041">
        <ele>8</ele>
        <time>2021-03-30T09:00:08Z</time>
      </trkpt>
      <trkpt lat="48.70065" lon="-3.8208">
        <ele>7</ele>
        <time>2021-03-30T09:00:13Z</time>
      </trkpt>
      <trkpt lat="48.70082" lon="-3.82127">
        <ele>7</ele>
        <time>2021-03-30T09:00:19Z</time>
      </trkpt>
      <trkpt lat="48.70102" lon="-3.82168">
        <ele>7</ele>
        <time>2021-03-30T09:00:25Z</time>
      </trkpt>
      <trkpt lat="48.70126" lon="-3.8221">
        <ele>7</ele>
        <time>2021-03-30T09:00:32Z</time>
      </trkpt>
      <trkpt lat="48.70172" lon="-3.82275">
        <ele>6</ele>
        <time>2021-03-30T09:00:43Z</time>
      </trkpt>
      <trkpt lat="48.70194" lon="-3.82317">
        <ele>4</ele>
        <time>2021-03-30T09:00:49Z</time>
      </trkpt>
      <trkpt lat="48.70396" lon="-3.82848">
        <ele>7</ele>
        <time>2021-03-30T09:02:01Z</time>
      </trkpt>
      <trkpt lat="48.70415" lon="-3.82876">
        <ele>9</ele>
        <time>2021-03-30T09:02:06Z</time>
      </trkpt>
      <trkpt lat="48.70432" lon="-3.82895">
        <ele>11</ele>
        <time>2021-03-30T09:02:10Z</time>
      </trkpt>
      <trkpt lat="48.70454" lon="-3.82908">
        <ele>13</ele>
        <time>2021-03-30T09:02:14Z</time>
      </trkpt>
      <trkpt lat="48.70472" lon="-3.82916">
        <ele>15</ele>
        <time>2021-03-30T09:02:17Z</time>
      </trkpt>
      <trkpt lat="48.70507" lon="-3.8292">
        <ele>17</ele>
        <time>2021-03-30T09:02:23Z</time>
      </trkpt>
      <trkpt lat="48.70525" lon="-3.82933">
        <ele>19</ele>
        <time>2021-03-30T09:02:27Z</time>
      </trkpt>
      <trkpt lat="48.7054" lon="-3.82949">
        <ele>20</ele>
        <time>2021-03-30T09:02:30Z</time>
      </trkpt>
      <trkpt lat="48.70564" lon="-3.83">
        <ele>22</ele>
        <time>2021-03-30T09:02:38Z</time>
      </trkpt>
      <trkpt lat="48.70569" lon="-3.83017">
        <ele>23</ele>
        <time>2021-03-30T09:02:40Z</time>
      </trkpt>
      <trkpt lat="48.7057" lon="-3.83022">
        <ele>23</ele>
        <time>2022-05-13T13:22:36Z</time>
      </trkpt>
      <trkpt lat="48.70573" lon="-3.83037">
        <ele>23</ele>
        <time>2022-05-13T13:22:38Z</time>
      </trkpt>
      <trkpt lat="48.70571" lon="-3.83077">
        <ele>25</ele>
        <time>2022-05-13T13:22:43Z</time>
      </trkpt>
      <trkpt lat="48.70544" lon="-3.83196">
        <ele>29</ele>
        <time>2022-05-13T13:22:57Z</time>
      </trkpt>
      <trkpt lat="48.7054" lon="-3.83211">
        <ele>29</ele>
        <time>2022-05-13T13:22:59Z</time>
      </trkpt>
      <trkpt lat="48.70533" lon="-3.83222">
        <ele>29</ele>
        <time>2022-05-13T13:23:01Z</time>
      </trkpt>
      <trkpt lat="48.70518" lon="-3.83234">
        <ele>30</ele>
        <time>2022-05-13T13:23:04Z</time>
      </trkpt>
      <trkpt lat="48.70411" lon="-3.83296">
        <ele>35</ele>
        <time>2022-05-13T13:23:24Z</time>
      </trkpt>
      <trkpt lat="48.7036" lon="-3.83348">
        <ele>35</ele>
        <time>2022-05-13T13:23:35Z</time>
      </trkpt>
      <trkpt lat="48.70335" lon="-3.83368">
        <ele>36</ele>
        <time>2022-05-13T13:23:40Z</time>
      </trkpt>
      <trkpt lat="48.7032" lon="-3.83377">
        <ele>36</ele>
        <time>2022-05-13T13:23:43Z</time>
      </trkpt>
      <trkpt lat="48.70305" lon="-3.83423">
        <ele>36</ele>
        <time>2022-05-13T13:23:49Z</time>
      </trkpt>
      <trkpt lat="48.70273" lon="-3.83596">
        <ele>44</ele>
        <time>2022-05-13T13:24:10Z</time>
      </trkpt>
      <trkpt lat="48.70265" lon="-3.83629">
        <ele>46</ele>
        <time>2022-05-13T13:24:15Z</time>
      </trkpt>
      <trkpt lat="48.70249" lon="-3.83667">
        <ele>47</ele>
        <time>2022-05-13T13:24:20Z</time>
      </trkpt>
      <trkpt lat="48.70229" lon="-3.83698">
        <ele>49</ele>
        <time>2022-05-13T13:24:25Z</time>
      </trkpt>
      <trkpt lat="48.70209" lon="-3.83717">
        <ele>50</ele>
        <time>2022-05-13T13:24:29Z</time>
      </trkpt>
      <trkpt lat="48.70177" lon="-3.8374">
        <ele>51</ele>
        <time>2022-05-13T13:24:35Z</time>
      </trkpt>
      <trkpt lat="48.69944" lon="-3.83829">
        <ele>51</ele>
        <time>2022-05-13T13:25:18Z</time>
      </trkpt>
      <trkpt lat="48.6992" lon="-3.83833">
        <ele>49</ele>
        <time>2022-05-13T13:25:22Z</time>
      </trkpt>
      <trkpt lat="48.69894" lon="-3.83829">
        <ele>47</ele>
        <time>2022-05-13T13:25:27Z</time>
      </trkpt>
      <trkpt lat="48.69871" lon="-3.83821">
        <ele>45</ele>
        <time>2022-05-13T13:25:31Z</time>
      </trkpt>
      <trkpt lat="48.69852" lon="-3.8381">
        <ele>43</ele>
        <time>2022-05-13T13:25:35Z</time>
      </trkpt>
      <trkpt lat="48.69701" lon="-3.83684">
        <ele>41</ele>
        <time>2022-05-13T13:26:06Z</time>
      </trkpt>
      <trkpt lat="48.69664" lon="-3.83656">
        <ele>42</ele>
        <time>2022-05-13T13:26:13Z</time>
      </trkpt>
      <trkpt lat="48.6962" lon="-3.83632">
        <ele>45</ele>
        <time>2022-05-13T13:26:21Z</time>
      </trkpt>
      <trkpt lat="48.69542" lon="-3.83601">
        <ele>50</ele>
        <time>2022-05-13T13:26:36Z</time>
      </trkpt>
      <trkpt lat="48.69445" lon="-3.8358">
        <ele>53</ele>
        <time>2022-05-13T13:26:53Z</time>
      </trkpt>
      <trkpt lat="48.69123" lon="-3.8352">
        <ele>48</ele>
        <time>2022-05-13T13:27:51Z</time>
      </trkpt>
      <trkpt lat="48.69082" lon="-3.83519">
        <ele>46</ele>
        <time>2022-05-13T13:27:58Z</time>
      </trkpt>
      <trkpt lat="48.69061" lon="-3.83522">
        <ele>47</ele>
        <time>2022-05-13T13:28:02Z</time>
      </trkpt>
      <trkpt lat="48.69038" lon="-3.8353">
        <ele>47</ele>
        <time>2022-05-13T13:28:06Z</time>
      </trkpt>
      <trkpt lat="48.69072" lon="-3.8356">
        <ele>45</ele>
        <time>2022-05-13T13:28:13Z</time>
      </trkpt>
      <trkpt lat="48.69094" lon="-3.83599">
        <ele>44</ele>
        <time>2022-05-13T13:28:19Z</time>
      </trkpt>
      <trkpt lat="48.6911" lon="-3.83658">
        <ele>42</ele>
        <time>2022-05-13T13:28:27Z</time>
      </trkpt>
      <trkpt lat="48.69097" lon="-3.83761">
        <ele>34</ele>
        <time>2022-05-13T13:28:39Z</time>
      </trkpt>
      <trkpt lat="48.69099" lon="-3.83818">
        <ele>31</ele>
        <time>2022-05-13T13:28:46Z</time>
      </trkpt>
      <trkpt lat="48.6911" lon="-3.83869">
        <ele>29</ele>
        <time>2022-05-13T13:28:52Z</time>
      </trkpt>
      <trkpt lat="48.69164" lon="-3.8394">
        <ele>20</ele>
        <time>2022-05-13T13:29:05Z</time>
      </trkpt>
      <trkpt lat="48.69181" lon="-3.83959">
        <ele>19</ele>
        <time>2022-05-13T13:29:08Z</time>
      </trkpt>
      <trkpt lat="48.6915" lon="-3.84022">
        <ele>21</ele>
        <time>2022-05-13T13:29:18Z</time>
      </trkpt>
      <trkpt lat="48.69138" lon="-3.84066">
        <ele>22</ele>
        <time>2022-05-13T13:29:23Z</time>
      </trkpt>
      <trkpt lat="48.69128" lon="-3.84156">
        <ele>24</ele>
        <time>2022-05-13T13:29:34Z</time>
      </trkpt>
      <trkpt lat="48.69132" lon="-3.84207">
        <ele>26</ele>
        <time>2022-05-13T13:29:40Z</time>
      </trkpt>
      <trkpt lat="48.69158" lon="-3.84288">
        <ele>28</ele>
        <time>2022-05-13T13:29:50Z</time>
      </trkpt>
      <trkpt lat="48.69166" lon="-3.84333">
        <ele>31</ele>
        <time>2022-05-13T13:29:56Z</time>
      </trkpt>
      <trkpt lat="48.6918" lon="-3.84377">
        <ele>33</ele>
        <time>2022-05-13T13:30:02Z</time>
      </trkpt>
      <trkpt lat="48.69212" lon="-3.84429">
        <ele>35</ele>
        <time>2022-05-13T13:30:10Z</time>
      </trkpt>
      <trkpt lat="48.6924" lon="-3.84484">
        <ele>35</ele>
        <time>2022-05-13T13:30:18Z</time>
      </trkpt>
      <trkpt lat="48.69274" lon="-3.84539">
        <ele>35</ele>
        <time>2022-05-13T13:30:27Z</time>
      </trkpt>
      <trkpt lat="48.6928" lon="-3.84555">
        <ele>35</ele>
        <time>2022-05-13T13:30:29Z</time>
      </trkpt>
      <trkpt lat="48.69255" lon="-3.84579">
        <ele>34</ele>
        <time>2022-05-13T13:30:34Z</time>
      </trkpt>
      <trkpt lat="48.69187" lon="-3.84529">
        <ele>36</ele>
        <time>2022-05-13T13:30:48Z</time>
      </trkpt>
      <trkpt lat="48.69138" lon="-3.84531">
        <ele>38</ele>
        <time>2022-05-13T13:30:57Z</time>
      </trkpt>
      <trkpt lat="48.6909" lon="-3.84542">
        <ele>39</ele>
        <time>2022-05-13T13:31:05Z</time>
      </trkpt>
      <trkpt lat="48.69053" lon="-3.84574">
        <ele>39</ele>
        <time>2022-05-13T13:31:13Z</time>
      </trkpt>
      <trkpt lat="48.69011" lon="-3.84597">
        <ele>40</ele>
        <time>2022-05-13T13:31:21Z</time>
      </trkpt>
      <trkpt lat="48.68958" lon="-3.84616">
        <ele>39</ele>
        <time>2022-05-13T13:31:31Z</time>
      </trkpt>
      <trkpt lat="48.68914" lon="-3.84618">
        <ele>40</ele>
        <time>2022-05-13T13:31:38Z</time>
      </trkpt>
      <trkpt lat="48.68905" lon="-3.84626">
        <ele>39</ele>
        <time>2022-05-13T13:31:40Z</time>
      </trkpt>
      <trkpt lat="48.68885" lon="-3.84654">
        <ele>38</ele>
        <time>2022-05-13T13:31:45Z</time>
      </trkpt>
      <trkpt lat="48.68869" lon="-3.8466">
        <ele>38</ele>
        <time>2022-05-13T13:31:48Z</time>
      </trkpt>
      <trkpt lat="48.68826" lon="-3.84659">
        <ele>39</ele>
        <time>2022-05-13T13:31:56Z</time>
      </trkpt>
      <trkpt lat="48.68807" lon="-3.84647">
        <ele>40</ele>
        <time>2022-05-13T13:31:59Z</time>
      </trkpt>
      <trkpt lat="48.68786" lon="-3.84604">
        <ele>40</ele>
        <time>2022-05-13T13:32:06Z</time>
      </trkpt>
      <trkpt lat="48.68747" lon="-3.84589">
        <ele>41</ele>
        <time>2022-05-13T13:32:13Z</time>
      </trkpt>
      <trkpt lat="48.68682" lon="-3.84572">
        <ele>40</ele>
        <time>2022-05-13T13:32:24Z</time>
      </trkpt>
      <trkpt lat="48.68655" lon="-3.84569">
        <ele>40</ele>
        <time>2022-05-13T13:32:29Z</time>
      </trkpt>
      <trkpt lat="48.68626" lon="-3.84558">
        <ele>40</ele>
        <time>2022-05-13T13:32:35Z</time>
      </trkpt>
      <trkpt lat="48.68561" lon="-3.84525">
        <ele>40</ele>
        <time>2022-05-13T13:32:47Z</time>
      </trkpt>
      <trkpt lat="48.68501" lon="-3.84501">
        <ele>40</ele>
        <time>2022-05-13T13:32:58Z</time>
      </trkpt>
      <trkpt lat="48.68453" lon="-3.84467">
        <ele>40</ele>
        <time>2022-05-13T13:33:07Z</time>
      </trkpt>
      <trkpt lat="48.68441" lon="-3.84464">
        <ele>40</ele>
        <time>2022-05-13T13:33:09Z</time>
      </trkpt>
      <trkpt lat="48.68414" lon="-3.84451">
        <ele>41</ele>
        <time>2022-05-13T13:33:14Z</time>
      </trkpt>
      <trkpt lat="48.6835" lon="-3.84406">
        <ele>43</ele>
        <time>2022-05-13T13:33:27Z</time>
      </trkpt>
      <trkpt lat="48.68332" lon="-3.84399">
        <ele>43</ele>
        <time>2022-05-13T13:33:30Z</time>
      </trkpt>
      <trkpt lat="48.68299" lon="-3.84399">
        <ele>44</ele>
        <time>2022-05-13T13:33:36Z</time>
      </trkpt>
      <trkpt lat="48.68259" lon="-3.84318">
        <ele>46</ele>
        <time>2022-05-13T13:33:48Z</time>
      </trkpt>
      <trkpt lat="48.68243" lon="-3.84278">
        <ele>47</ele>
        <time>2022-05-13T13:33:54Z</time>
      </trkpt>
      <trkpt lat="48.68222" lon="-3.8429">
        <ele>47</ele>
        <time>2022-05-13T13:33:58Z</time>
      </trkpt>
      <trkpt lat="48.68188" lon="-3.84324">
        <ele>46</ele>
        <time>2022-05-13T13:34:05Z</time>
      </trkpt>
      <trkpt lat="48.68176" lon="-3.84345">
        <ele>46</ele>
        <time>2022-05-13T13:34:08Z</time>
      </trkpt>
      <trkpt lat="48.68168" lon="-3.84369">
        <ele>46</ele>
        <time>2022-05-13T13:34:11Z</time>
      </trkpt>
      <trkpt lat="48.68137" lon="-3.8434">
        <ele>45</ele>
        <time>2022-05-13T13:34:18Z</time>
      </trkpt>
      <trkpt lat="48.68102" lon="-3.84313">
        <ele>45</ele>
        <time>2022-05-13T13:34:25Z</time>
      </trkpt>
      <trkpt lat="48.68101" lon="-3.84366">
        <ele>43</ele>
        <time>2022-05-13T13:34:31Z</time>
      </trkpt>
      <trkpt lat="48.68096" lon="-3.84371">
        <ele>42</ele>
        <time>2022-05-13T13:34:32Z</time>
      </trkpt>
      <trkpt lat="48.68038" lon="-3.84377">
        <ele>37</ele>
        <time>2022-05-13T13:34:42Z</time>
      </trkpt>
      <trkpt lat="48.68022" lon="-3.84373">
        <ele>36</ele>
        <time>2022-05-13T13:34:45Z</time>
      </trkpt>
      <trkpt lat="48.6799" lon="-3.84357">
        <ele>35</ele>
        <time>2022-05-13T13:34:51Z</time>
      </trkpt>
      <trkpt lat="48.67961" lon="-3.84338">
        <ele>34</ele>
        <time>2022-05-13T13:34:57Z</time>
      </trkpt>
      <trkpt lat="48.67927" lon="-3.84305">
        <ele>34</ele>
        <time>2022-05-13T13:35:04Z</time>
      </trkpt>
      <trkpt lat="48.67899" lon="-3.84286">
        <ele>35</ele>
        <time>2022-05-13T13:35:10Z</time>
      </trkpt>
      <trkpt lat="48.67874" lon="-3.84293">
        <ele>35</ele>
        <time>2022-05-13T13:35:14Z</time>
      </trkpt>
      <trkpt lat="48.67864" lon="-3.84302">
        <ele>34</ele>
        <time>2022-05-13T13:35:16Z</time>
      </trkpt>
      <trkpt lat="48.6785" lon="-3.8431">
        <ele>35</ele>
        <time>2022-05-13T13:35:19Z</time>
      </trkpt>
      <trkpt lat="48.67843" lon="-3.8432">
        <ele>35</ele>
        <time>2022-05-13T13:35:20Z</time>
      </trkpt>
      <trkpt lat="48.67804" lon="-3.84333">
        <ele>37</ele>
        <time>2022-05-13T13:35:28Z</time>
      </trkpt>
      <trkpt lat="48.67788" lon="-3.84364">
        <ele>38</ele>
        <time>2022-05-13T13:35:32Z</time>
      </trkpt>
      <trkpt lat="48.67781" lon="-3.8439">
        <ele>38</ele>
        <time>2022-05-13T13:35:36Z</time>
      </trkpt>
      <trkpt lat="48.67773" lon="-3.84406">
        <ele>39</ele>
        <time>2022-05-13T13:35:38Z</time>
      </trkpt>
      <trkpt lat="48.67745" lon="-3.84425">
        <ele>40</ele>
        <time>2022-05-13T13:35:43Z</time>
      </trkpt>
      <trkpt lat="48.67743" lon="-3.84445">
        <ele>40</ele>
        <time>2022-05-13T13:35:46Z</time>
      </trkpt>
      <trkpt lat="48.67747" lon="-3.8445">
        <ele>40</ele>
        <time>2022-05-13T13:35:47Z</time>
      </trkpt>
      <trkpt lat="48.67818" lon="-3.84495">
        <ele>38</ele>
        <time>2022-05-13T13:36:00Z</time>
      </trkpt>
      <trkpt lat="48.67832" lon="-3.8451">
        <ele>37</ele>
        <time>2022-05-13T13:36:03Z</time>
      </trkpt>
      <trkpt lat="48.67838" lon="-3.84527">
        <ele>36</ele>
        <time>2022-05-13T13:36:06Z</time>
      </trkpt>
      <trkpt lat="48.67841" lon="-3.8455">
        <ele>34</ele>
        <time>2022-05-13T13:36:08Z</time>
      </trkpt>
      <trkpt lat="48.67834" lon="-3.8463">
        <ele>31</ele>
        <time>2022-05-13T13:36:18Z</time>
      </trkpt>
      <trkpt lat="48.67827" lon="-3.84668">
        <ele>28</ele>
        <time>2022-05-13T13:36:23Z</time>
      </trkpt>
      <trkpt lat="48.6767" lon="-3.84661">
        <ele>33</ele>
        <time>2022-05-13T13:36:50Z</time>
      </trkpt>
      <trkpt lat="48.67584" lon="-3.84653">
        <ele>26</ele>
        <time>2022-05-13T13:37:06Z</time>
      </trkpt>
      <trkpt lat="48.67518" lon="-3.84641">
        <ele>24</ele>
        <time>2022-05-13T13:37:18Z</time>
      </trkpt>
      <trkpt lat="48.67394" lon="-3.84606">
        <ele>22</ele>
        <time>2022-05-13T13:37:40Z</time>
      </trkpt>
      <trkpt lat="48.67277" lon="-3.84567">
        <ele>20</ele>
        <time>2022-05-13T13:38:01Z</time>
      </trkpt>
      <trkpt lat="48.67206" lon="-3.84537">
        <ele>21</ele>
        <time>2022-05-13T13:38:14Z</time>
      </trkpt>
      <trkpt lat="48.67182" lon="-3.8453">
        <ele>20</ele>
        <time>2022-05-13T13:38:19Z</time>
      </trkpt>
      <trkpt lat="48.6716" lon="-3.84528">
        <ele>19</ele>
        <time>2022-05-13T13:38:23Z</time>
      </trkpt>
      <trkpt lat="48.67122" lon="-3.84534">
        <ele>18</ele>
        <time>2022-05-13T13:38:30Z</time>
      </trkpt>
      <trkpt lat="48.6709" lon="-3.84552">
        <ele>15</ele>
        <time>2022-05-13T13:38:36Z</time>
      </trkpt>
      <trkpt lat="48.6705" lon="-3.84589">
        <ele>16</ele>
        <time>2022-05-13T13:38:44Z</time>
      </trkpt>
      <trkpt lat="48.66994" lon="-3.84664">
        <ele>16</ele>
        <time>2022-05-13T13:38:57Z</time>
      </trkpt>
      <trkpt lat="48.66974" lon="-3.84685">
        <ele>17</ele>
        <time>2022-05-13T13:39:02Z</time>
      </trkpt>
      <trkpt lat="48.66937" lon="-3.8471">
        <ele>17</ele>
        <time>2022-05-13T13:39:09Z</time>
      </trkpt>
      <trkpt lat="48.66909" lon="-3.84716">
        <ele>18</ele>
        <time>2022-05-13T13:39:14Z</time>
      </trkpt>
      <trkpt lat="48.66877" lon="-3.84711">
        <ele>17</ele>
        <time>2022-05-13T13:39:20Z</time>
      </trkpt>
      <trkpt lat="48.66854" lon="-3.84702">
        <ele>18</ele>
        <time>2022-05-13T13:39:24Z</time>
      </trkpt>
      <trkpt lat="48.66743" lon="-3.84642">
        <ele>21</ele>
        <time>2022-05-13T13:39:45Z</time>
      </trkpt>
      <trkpt lat="48.6668" lon="-3.84613">
        <ele>24</ele>
        <time>2022-05-13T13:39:56Z</time>
      </trkpt>
      <trkpt lat="48.66558" lon="-3.84594">
        <ele>20</ele>
        <time>2022-05-13T13:40:18Z</time>
      </trkpt>
      <trkpt lat="48.66217" lon="-3.84533">
        <ele>8</ele>
        <time>2022-05-13T13:41:19Z</time>
      </trkpt>
      <trkpt lat="48.66152" lon="-3.84525">
        <ele>6</ele>
        <time>2022-05-13T13:41:31Z</time>
      </trkpt>
      <trkpt lat="48.6612" lon="-3.84525">
        <ele>6</ele>
        <time>2022-05-13T13:41:37Z</time>
      </trkpt>
      <trkpt lat="48.66093" lon="-3.84532">
        <ele>7</ele>
        <time>2022-05-13T13:41:42Z</time>
      </trkpt>
      <trkpt lat="48.66069" lon="-3.84542">
        <ele>7</ele>
        <time>2022-05-13T13:41:46Z</time>
      </trkpt>
      <trkpt lat="48.66055" lon="-3.84552">
        <ele>7</ele>
        <time>2022-05-13T13:41:49Z</time>
      </trkpt>
      <trkpt lat="48.66022" lon="-3.84593">
        <ele>7</ele>
        <time>2022-05-13T13:41:56Z</time>
      </trkpt>
      <trkpt lat="48.65995" lon="-3.84647">
        <ele>7</ele>
        <time>2022-05-13T13:42:04Z</time>
      </trkpt>
      <trkpt lat="48.65987" lon="-3.84677">
        <ele>7</ele>
        <time>2022-05-13T13:42:08Z</time>
      </trkpt>
      <trkpt lat="48.65979" lon="-3.8473">
        <ele>7</ele>
        <time>2022-05-13T13:42:15Z</time>
      </trkpt>
      <trkpt lat="48.6597" lon="-3.84944">
        <ele>8</ele>
        <time>2022-05-13T13:42:40Z</time>
      </trkpt>
      <trkpt lat="48.65963" lon="-3.84973">
        <ele>9</ele>
        <time>2022-05-13T13:42:43Z</time>
      </trkpt>
      <trkpt lat="48.65948" lon="-3.85016">
        <ele>10</ele>
        <time>2022-05-13T13:42:49Z</time>
      </trkpt>
      <trkpt lat="48.65939" lon="-3.85035">
        <ele>11</ele>
        <time>2022-05-13T13:42:52Z</time>
      </trkpt>
      <trkpt lat="48.65928" lon="-3.85054">
        <ele>11</ele>
        <time>2022-05-13T13:42:55Z</time>
      </trkpt>
      <trkpt lat="48.65901" lon="-3.8509">
        <ele>13</ele>
        <time>2022-05-13T13:43:01Z</time>
      </trkpt>
      <trkpt lat="48.65875" lon="-3.85111">
        <ele>16</ele>
        <time>2022-05-13T13:43:06Z</time>
      </trkpt>
      <trkpt lat="48.65844" lon="-3.85125">
        <ele>19</ele>
        <time>2022-05-13T13:43:12Z</time>
      </trkpt>
      <trkpt lat="48.65808" lon="-3.85133">
        <ele>23</ele>
        <time>2022-05-13T13:43:19Z</time>
      </trkpt>
      <trkpt lat="48.65784" lon="-3.85131">
        <ele>26</ele>
        <time>2022-05-13T13:43:23Z</time>
      </trkpt>
      <trkpt lat="48.65766" lon="-3.85125">
        <ele>28</ele>
        <time>2022-05-13T13:43:26Z</time>
      </trkpt>
      <trkpt lat="48.65696" lon="-3.85083">
        <ele>33</ele>
        <time>2022-05-13T13:43:40Z</time>
      </trkpt>
      <trkpt lat="48.65616" lon="-3.85052">
        <ele>41</ele>
        <time>2022-05-13T13:43:54Z</time>
      </trkpt>
      <trkpt lat="48.6559" lon="-3.8503">
        <ele>42</ele>
        <time>2022-05-13T13:44:00Z</time>
      </trkpt>
      <trkpt lat="48.65571" lon="-3.85007">
        <ele>43</ele>
        <time>2022-05-13T13:44:04Z</time>
      </trkpt>
      <trkpt lat="48.65557" lon="-3.84983">
        <ele>44</ele>
        <time>2022-05-13T13:44:08Z</time>
      </trkpt>
      <trkpt lat="48.65507" lon="-3.84885">
        <ele>46</ele>
        <time>2022-05-13T13:44:22Z</time>
      </trkpt>
      <trkpt lat="48.65468" lon="-3.84841">
        <ele>48</ele>
        <time>2022-05-13T13:44:31Z</time>
      </trkpt>
      <trkpt lat="48.65365" lon="-3.84756">
        <ele>52</ele>
        <time>2022-05-13T13:44:52Z</time>
      </trkpt>
      <trkpt lat="48.65348" lon="-3.84793">
        <ele>52</ele>
        <time>2022-05-13T13:44:57Z</time>
      </trkpt>
      <trkpt lat="48.65336" lon="-3.84828">
        <ele>52</ele>
        <time>2022-05-13T13:45:02Z</time>
      </trkpt>
      <trkpt lat="48.6532" lon="-3.84892">
        <ele>53</ele>
        <time>2022-05-13T13:45:10Z</time>
      </trkpt>
      <trkpt lat="48.65312" lon="-3.84914">
        <ele>53</ele>
        <time>2022-05-13T13:45:13Z</time>
      </trkpt>
      <trkpt lat="48.65308" lon="-3.84914">
        <ele>53</ele>
        <time>2022-05-13T13:45:13Z</time>
      </trkpt>
      <trkpt lat="48.65281" lon="-3.84895">
        <ele>53</ele>
        <time>2022-05-13T13:45:19Z</time>
      </trkpt>
      <trkpt lat="48.65276" lon="-3.84893">
        <ele>53</ele>
        <time>2022-05-13T13:45:20Z</time>
      </trkpt>
      <trkpt lat="48.65272" lon="-3.84896">
        <ele>53</ele>
        <time>2022-05-13T13:45:20Z</time>
      </trkpt>
      <trkpt lat="48.65255" lon="-3.8496">
        <ele>52</ele>
        <time>2022-05-13T13:45:29Z</time>
      </trkpt>
      <trkpt lat="48.65186" lon="-3.85078">
        <ele>52</ele>
        <time>2022-05-13T13:45:47Z</time>
      </trkpt>
      <trkpt lat="48.65094" lon="-3.85006">
        <ele>53</ele>
        <time>2022-05-13T13:46:05Z</time>
      </trkpt>
      <trkpt lat="48.6506" lon="-3.84966">
        <ele>53</ele>
        <time>2022-05-13T13:46:13Z</time>
      </trkpt>
      <trkpt lat="48.65035" lon="-3.84928">
        <ele>53</ele>
        <time>2022-05-13T13:46:19Z</time>
      </trkpt>
      <trkpt lat="48.65008" lon="-3.84896">
        <ele>53</ele>
        <time>2022-05-13T13:46:26Z</time>
      </trkpt>
      <trkpt lat="48.64922" lon="-3.84841">
        <ele>48</ele>
        <time>2022-05-13T13:46:42Z</time>
      </trkpt>
      <trkpt lat="48.64905" lon="-3.84825">
        <ele>48</ele>
        <time>2022-05-13T13:46:46Z</time>
      </trkpt>
      <trkpt lat="48.64843" lon="-3.84694">
        <ele>45</ele>
        <time>2022-05-13T13:47:05Z</time>
      </trkpt>
      <trkpt lat="48.64789" lon="-3.84596">
        <ele>44</ele>
        <time>2022-05-13T13:47:20Z</time>
      </trkpt>
      <trkpt lat="48.64733" lon="-3.84466">
        <ele>48</ele>
        <time>2022-05-13T13:47:38Z</time>
      </trkpt>
      <trkpt lat="48.64715" lon="-3.84435">
        <ele>49</ele>
        <time>2022-05-13T13:47:43Z</time>
      </trkpt>
      <trkpt lat="48.64705" lon="-3.84425">
        <ele>49</ele>
        <time>2022-05-13T13:47:45Z</time>
      </trkpt>
      <trkpt lat="48.64677" lon="-3.84416">
        <ele>50</ele>
        <time>2022-05-13T13:47:50Z</time>
      </trkpt>
      <trkpt lat="48.64666" lon="-3.84404">
        <ele>50</ele>
        <time>2022-05-13T13:47:52Z</time>
      </trkpt>
      <trkpt lat="48.64623" lon="-3.84307">
        <ele>55</ele>
        <time>2022-05-13T13:48:06Z</time>
      </trkpt>
      <trkpt lat="48.64608" lon="-3.8426">
        <ele>58</ele>
        <time>2022-05-13T13:48:12Z</time>
      </trkpt>
      <trkpt lat="48.64603" lon="-3.84237">
        <ele>59</ele>
        <time>2022-05-13T13:48:15Z</time>
      </trkpt>
      <trkpt lat="48.64576" lon="-3.8408">
        <ele>63</ele>
        <time>2022-05-13T13:48:34Z</time>
      </trkpt>
      <trkpt lat="48.64557" lon="-3.8395">
        <ele>64</ele>
        <time>2022-05-13T13:48:50Z</time>
      </trkpt>
      <trkpt lat="48.64522" lon="-3.83759">
        <ele>69</ele>
        <time>2022-05-13T13:49:13Z</time>
      </trkpt>
      <trkpt lat="48.64513" lon="-3.83693">
        <ele>70</ele>
        <time>2022-05-13T13:49:21Z</time>
      </trkpt>
      <trkpt lat="48.64506" lon="-3.8367">
        <ele>71</ele>
        <time>2022-05-13T13:49:24Z</time>
      </trkpt>
      <trkpt lat="48.64476" lon="-3.83606">
        <ele>71</ele>
        <time>2022-05-13T13:49:33Z</time>
      </trkpt>
      <trkpt lat="48.64421" lon="-3.8347">
        <ele>71</ele>
        <time>2022-05-13T13:49:52Z</time>
      </trkpt>
      <trkpt lat="48.64391" lon="-3.83435">
        <ele>72</ele>
        <time>2022-05-13T13:49:59Z</time>
      </trkpt>
      <trkpt lat="48.64377" lon="-3.83652">
        <ele>69</ele>
        <time>2022-05-13T13:50:24Z</time>
      </trkpt>
      <trkpt lat="48.64378" lon="-3.83689">
        <ele>68</ele>
        <time>2022-05-13T13:50:29Z</time>
      </trkpt>
      <trkpt lat="48.64387" lon="-3.83784">
        <ele>65</ele>
        <time>2022-05-13T13:50:40Z</time>
      </trkpt>
      <trkpt lat="48.64385" lon="-3.83811">
        <ele>65</ele>
        <time>2022-05-13T13:50:43Z</time>
      </trkpt>
      <trkpt lat="48.64373" lon="-3.83875">
        <ele>63</ele>
        <time>2022-05-13T13:50:51Z</time>
      </trkpt>
      <trkpt lat="48.64343" lon="-3.84005">
        <ele>60</ele>
        <time>2022-05-13T13:51:07Z</time>
      </trkpt>
      <trkpt lat="48.64328" lon="-3.84046">
        <ele>59</ele>
        <time>2022-05-13T13:51:13Z</time>
      </trkpt>
      <trkpt lat="48.64317" lon="-3.84066">
        <ele>59</ele>
        <time>2022-05-13T13:51:16Z</time>
      </trkpt>
      <trkpt lat="48.6429" lon="-3.84093">
        <ele>58</ele>
        <time>2022-05-13T13:51:22Z</time>
      </trkpt>
      <trkpt lat="48.64281" lon="-3.8411">
        <ele>57</ele>
        <time>2022-05-13T13:51:24Z</time>
      </trkpt>
      <trkpt lat="48.64264" lon="-3.84184">
        <ele>53</ele>
        <time>2022-05-13T13:51:33Z</time>
      </trkpt>
      <trkpt lat="48.64247" lon="-3.8423">
        <ele>49</ele>
        <time>2022-05-13T13:51:40Z</time>
      </trkpt>
      <trkpt lat="48.64227" lon="-3.8427">
        <ele>46</ele>
        <time>2022-05-13T13:51:45Z</time>
      </trkpt>
      <trkpt lat="48.64186" lon="-3.84216">
        <ele>50</ele>
        <time>2022-05-13T13:51:55Z</time>
      </trkpt>
      <trkpt lat="48.6415" lon="-3.84162">
        <ele>53</ele>
        <time>2022-05-13T13:52:04Z</time>
      </trkpt>
      <trkpt lat="48.64132" lon="-3.84145">
        <ele>53</ele>
        <time>2022-05-13T13:52:08Z</time>
      </trkpt>
      <trkpt lat="48.6411" lon="-3.84136">
        <ele>53</ele>
        <time>2022-05-13T13:52:12Z</time>
      </trkpt>
      <trkpt lat="48.64071" lon="-3.8414">
        <ele>51</ele>
        <time>2022-05-13T13:52:19Z</time>
      </trkpt>
      <trkpt lat="48.64007" lon="-3.84204">
        <ele>49</ele>
        <time>2022-05-13T13:52:33Z</time>
      </trkpt>
      <trkpt lat="48.63979" lon="-3.84239">
        <ele>49</ele>
        <time>2022-05-13T13:52:39Z</time>
      </trkpt>
      <trkpt lat="48.6394" lon="-3.84239">
        <ele>49</ele>
        <time>2022-05-13T13:52:46Z</time>
      </trkpt>
      <trkpt lat="48.63916" lon="-3.8421">
        <ele>49</ele>
        <time>2022-05-13T13:52:51Z</time>
      </trkpt>
      <trkpt lat="48.6386" lon="-3.84059">
        <ele>45</ele>
        <time>2022-05-13T13:53:12Z</time>
      </trkpt>
      <trkpt lat="48.63838" lon="-3.84071">
        <ele>45</ele>
        <time>2022-05-13T13:53:16Z</time>
      </trkpt>
      <trkpt lat="48.63787" lon="-3.84089">
        <ele>44</ele>
        <time>2022-05-13T13:53:25Z</time>
      </trkpt>
      <trkpt lat="48.6378" lon="-3.84096">
        <ele>44</ele>
        <time>2022-05-13T13:53:27Z</time>
      </trkpt>
      <trkpt lat="48.6371" lon="-3.84206">
        <ele>46</ele>
        <time>2022-05-13T13:53:45Z</time>
      </trkpt>
      <trkpt lat="48.637" lon="-3.84238">
        <ele>46</ele>
        <time>2022-05-13T13:53:49Z</time>
      </trkpt>
      <trkpt lat="48.63701" lon="-3.844">
        <ele>39</ele>
        <time>2022-05-13T13:54:08Z</time>
      </trkpt>
      <trkpt lat="48.63706" lon="-3.84545">
        <ele>35</ele>
        <time>2022-05-13T13:54:25Z</time>
      </trkpt>
      <trkpt lat="48.63699" lon="-3.84611">
        <ele>31</ele>
        <time>2022-05-13T13:54:33Z</time>
      </trkpt>
      <trkpt lat="48.63672" lon="-3.84753">
        <ele>15</ele>
        <time>2022-05-13T13:54:50Z</time>
      </trkpt>
      <trkpt lat="48.63647" lon="-3.84863">
        <ele>8</ele>
        <time>2022-05-13T13:55:04Z</time>
      </trkpt>
      <trkpt lat="48.63644" lon="-3.84869">
        <ele>7</ele>
        <time>2022-05-13T13:55:05Z</time>
      </trkpt>
      <trkpt lat="48.63622" lon="-3.8488">
        <ele>7</ele>
        <time>2022-05-13T13:55:09Z</time>
      </trkpt>
      <trkpt lat="48.63557" lon="-3.84891">
        <ele>6</ele>
        <time>2022-05-13T13:55:21Z</time>
      </trkpt>
      <trkpt lat="48.63521" lon="-3.84886">
        <ele>6</ele>
        <time>2022-05-13T13:55:27Z</time>
      </trkpt>
      <trkpt lat="48.63473" lon="-3.84875">
        <ele>7</ele>
        <time>2022-05-13T13:55:36Z</time>
      </trkpt>
      <trkpt lat="48.63416" lon="-3.84844">
        <ele>10</ele>
        <time>2022-05-13T13:55:46Z</time>
      </trkpt>
      <trkpt lat="48.63388" lon="-3.84832">
        <ele>10</ele>
        <time>2022-05-13T13:55:52Z</time>
      </trkpt>
      <trkpt lat="48.63335" lon="-3.84811">
        <ele>11</ele>
        <time>2022-05-13T13:56:01Z</time>
      </trkpt>
      <trkpt lat="48.63294" lon="-3.84798">
        <ele>11</ele>
        <time>2022-05-13T13:56:09Z</time>
      </trkpt>
      <trkpt lat="48.63268" lon="-3.84793">
        <ele>11</ele>
        <time>2022-05-13T13:56:13Z</time>
      </trkpt>
      <trkpt lat="48.6319" lon="-3.84762">
        <ele>12</ele>
        <time>2022-05-13T13:56:28Z</time>
      </trkpt>
      <trkpt lat="48.63152" lon="-3.84756">
        <ele>10</ele>
        <time>2022-05-13T13:56:35Z</time>
      </trkpt>
      <trkpt lat="48.63128" lon="-3.84767">
        <ele>7</ele>
        <time>2022-05-13T13:56:39Z</time>
      </trkpt>
      <trkpt lat="48.63118" lon="-3.8477">
        <ele>6</ele>
        <time>2022-05-13T13:56:41Z</time>
      </trkpt>
      <trkpt lat="48.63113" lon="-3.84769">
        <ele>6</ele>
        <time>2022-05-13T13:56:42Z</time>
      </trkpt>
      <trkpt lat="48.63107" lon="-3.84764">
        <ele>6</ele>
        <time>2022-05-13T13:56:43Z</time>
      </trkpt>
      <trkpt lat="48.63075" lon="-3.84707">
        <ele>8</ele>
        <time>2022-05-13T13:56:52Z</time>
      </trkpt>
      <trkpt lat="48.63036" lon="-3.84653">
        <ele>8</ele>
        <time>2022-05-13T13:57:01Z</time>
      </trkpt>
      <trkpt lat="48.63009" lon="-3.84634">
        <ele>7</ele>
        <time>2022-05-13T13:57:06Z</time>
      </trkpt>
      <trkpt lat="48.62982" lon="-3.84577">
        <ele>7</ele>
        <time>2022-05-13T13:57:15Z</time>
      </trkpt>
      <trkpt lat="48.62959" lon="-3.84542">
        <ele>9</ele>
        <time>2022-05-13T13:57:20Z</time>
      </trkpt>
      <trkpt lat="48.62927" lon="-3.84505">
        <ele>7</ele>
        <time>2022-05-13T13:57:28Z</time>
      </trkpt>
      <trkpt lat="48.62922" lon="-3.84496">
        <ele>7</ele>
        <time>2022-05-13T13:57:29Z</time>
      </trkpt>
      <trkpt lat="48.62922" lon="-3.84485">
        <ele>8</ele>
        <time>2022-05-13T13:57:30Z</time>
      </trkpt>
      <trkpt lat="48.62904" lon="-3.84425">
        <ele>9</ele>
        <time>2022-05-13T13:57:38Z</time>
      </trkpt>
      <trkpt lat="48.6287" lon="-3.84378">
        <ele>8</ele>
        <time>2022-05-13T13:57:46Z</time>
      </trkpt>
      <trkpt lat="48.62864" lon="-3.84342">
        <ele>9</ele>
        <time>2022-05-13T13:57:51Z</time>
      </trkpt>
      <trkpt lat="48.62851" lon="-3.8432">
        <ele>8</ele>
        <time>2022-05-13T13:57:54Z</time>
      </trkpt>
      <trkpt lat="48.62778" lon="-3.84445">
        <ele>2</ele>
        <time>2022-05-13T13:58:14Z</time>
      </trkpt>
      <trkpt lat="48.6272" lon="-3.8455">
        <ele>11</ele>
        <time>2022-05-13T13:58:30Z</time>
      </trkpt>
      <trkpt lat="48.62714" lon="-3.84544">
        <ele>13</ele>
        <time>2022-05-13T13:58:31Z</time>
      </trkpt>
      <trkpt lat="48.62712" lon="-3.84508">
        <ele>15</ele>
        <time>2022-05-13T13:58:35Z</time>
      </trkpt>
      <trkpt lat="48.62705" lon="-3.84475">
        <ele>18</ele>
        <time>2022-05-13T13:58:39Z</time>
      </trkpt>
      <trkpt lat="48.62673" lon="-3.84364">
        <ele>27</ele>
        <time>2022-05-13T13:58:54Z</time>
      </trkpt>
      <trkpt lat="48.62671" lon="-3.84339">
        <ele>27</ele>
        <time>2022-05-13T13:58:57Z</time>
      </trkpt>
      <trkpt lat="48.62676" lon="-3.84294">
        <ele>24</ele>
        <time>2022-05-13T13:59:02Z</time>
      </trkpt>
      <trkpt lat="48.62688" lon="-3.84261">
        <ele>19</ele>
        <time>2022-05-13T13:59:06Z</time>
      </trkpt>
      <trkpt lat="48.62693" lon="-3.84231">
        <ele>16</ele>
        <time>2022-05-13T13:59:10Z</time>
      </trkpt>
      <trkpt lat="48.62693" lon="-3.84206">
        <ele>13</ele>
        <time>2022-05-13T13:59:13Z</time>
      </trkpt>
      <trkpt lat="48.62689" lon="-3.84181">
        <ele>12</ele>
        <time>2022-05-13T13:59:16Z</time>
      </trkpt>
      <trkpt lat="48.62695" lon="-3.8417">
        <ele>10</ele>
        <time>2022-05-13T13:59:18Z</time>
      </trkpt>
      <trkpt lat="48.62696" lon="-3.8416">
        <ele>9</ele>
        <time>2022-05-13T13:59:19Z</time>
      </trkpt>
      <trkpt lat="48.62696" lon="-3.84147">
        <ele>8</ele>
        <time>2022-05-13T13:59:20Z</time>
      </trkpt>
      <trkpt lat="48.62688" lon="-3.84128">
        <ele>8</ele>
        <time>2022-05-13T13:59:23Z</time>
      </trkpt>
      <trkpt lat="48.62686" lon="-3.84114">
        <ele>8</ele>
        <time>2022-05-13T13:59:25Z</time>
      </trkpt>
      <trkpt lat="48.62682" lon="-3.84058">
        <ele>9</ele>
        <time>2022-05-13T13:59:31Z</time>
      </trkpt>
      <trkpt lat="48.62674" lon="-3.84057">
        <ele>9</ele>
        <time>2022-05-13T13:59:33Z</time>
      </trkpt>
      <trkpt lat="48.62669" lon="-3.8406">
        <ele>9</ele>
        <time>2022-05-13T13:59:34Z</time>
      </trkpt>
      <trkpt lat="48.62665" lon="-3.84052">
        <ele>10</ele>
        <time>2022-05-13T13:59:35Z</time>
      </trkpt>
      <trkpt lat="48.6266" lon="-3.8405">
        <ele>10</ele>
        <time>2022-05-13T13:59:36Z</time>
      </trkpt>
      <trkpt lat="48.62657" lon="-3.84031">
        <ele>12</ele>
        <time>2022-05-13T13:59:38Z</time>
      </trkpt>
      <trkpt lat="48.62622" lon="-3.84014">
        <ele>11</ele>
        <time>2022-05-13T13:59:45Z</time>
      </trkpt>
      <trkpt lat="48.62575" lon="-3.83982">
        <ele>11</ele>
        <time>2022-05-13T13:59:54Z</time>
      </trkpt>
      <trkpt lat="48.62515" lon="-3.83925">
        <ele>12</ele>
        <time>2022-05-13T14:00:06Z</time>
      </trkpt>
      <trkpt lat="48.62464" lon="-3.83867">
        <ele>15</ele>
        <time>2022-05-13T14:00:18Z</time>
      </trkpt>
      <trkpt lat="48.62412" lon="-3.8378">
        <ele>18</ele>
        <time>2022-05-13T14:00:32Z</time>
      </trkpt>
      <trkpt lat="48.624" lon="-3.8377">
        <ele>18</ele>
        <time>2022-05-13T14:00:34Z</time>
      </trkpt>
      <trkpt lat="48.62391" lon="-3.83766">
        <ele>18</ele>
        <time>2022-05-13T14:00:36Z</time>
      </trkpt>
      <trkpt lat="48.62344" lon="-3.83756">
        <ele>17</ele>
        <time>2022-05-13T14:00:44Z</time>
      </trkpt>
      <trkpt lat="48.62263" lon="-3.83723">
        <ele>25</ele>
        <time>2022-05-13T14:00:59Z</time>
      </trkpt>
      <trkpt lat="48.62211" lon="-3.83647">
        <ele>31</ele>
        <time>2022-05-13T14:01:12Z</time>
      </trkpt>
      <trkpt lat="48.62188" lon="-3.83583">
        <ele>29</ele>
        <time>2022-05-13T14:01:21Z</time>
      </trkpt>
      <trkpt lat="48.62166" lon="-3.83533">
        <ele>29</ele>
        <time>2022-05-13T14:01:28Z</time>
      </trkpt>
      <trkpt lat="48.62138" lon="-3.83432">
        <ele>27</ele>
        <time>2022-05-13T14:01:40Z</time>
      </trkpt>
      <trkpt lat="48.62099" lon="-3.83364">
        <ele>26</ele>
        <time>2022-05-13T14:01:51Z</time>
      </trkpt>
      <trkpt lat="48.62075" lon="-3.8333">
        <ele>25</ele>
        <time>2022-05-13T14:01:57Z</time>
      </trkpt>
      <trkpt lat="48.62031" lon="-3.8328">
        <ele>29</ele>
        <time>2022-05-13T14:02:07Z</time>
      </trkpt>
      <trkpt lat="48.61984" lon="-3.83248">
        <ele>31</ele>
        <time>2022-05-13T14:02:16Z</time>
      </trkpt>
      <trkpt lat="48.61969" lon="-3.83224">
        <ele>32</ele>
        <time>2022-05-13T14:02:20Z</time>
      </trkpt>
      <trkpt lat="48.61865" lon="-3.82973">
        <ele>34</ele>
        <time>2022-05-13T14:02:55Z</time>
      </trkpt>
      <trkpt lat="48.61857" lon="-3.82944">
        <ele>33</ele>
        <time>2022-05-13T14:02:58Z</time>
      </trkpt>
      <trkpt lat="48.61852" lon="-3.82941">
        <ele>33</ele>
        <time>2022-05-13T14:02:59Z</time>
      </trkpt>
      <trkpt lat="48.61815" lon="-3.82898">
        <ele>34</ele>
        <time>2022-05-13T14:03:08Z</time>
      </trkpt>
      <trkpt lat="48.61785" lon="-3.82877">
        <ele>37</ele>
        <time>2022-05-13T14:03:13Z</time>
      </trkpt>
      <trkpt lat="48.61775" lon="-3.82873">
        <ele>39</ele>
        <time>2022-05-13T14:03:15Z</time>
      </trkpt>
      <trkpt lat="48.61749" lon="-3.82869">
        <ele>42</ele>
        <time>2022-05-13T14:03:20Z</time>
      </trkpt>
      <trkpt lat="48.61566" lon="-3.82885">
        <ele>53</ele>
        <time>2022-05-13T14:03:53Z</time>
      </trkpt>
      <trkpt lat="48.61527" lon="-3.82901">
        <ele>54</ele>
        <time>2022-05-13T14:04:00Z</time>
      </trkpt>
      <trkpt lat="48.61516" lon="-3.82908">
        <ele>54</ele>
        <time>2022-05-13T14:04:02Z</time>
      </trkpt>
      <trkpt lat="48.61416" lon="-3.82989">
        <ele>60</ele>
        <time>2022-05-13T14:04:22Z</time>
      </trkpt>
      <trkpt lat="48.61401" lon="-3.82997">
        <ele>60</ele>
        <time>2022-05-13T14:04:25Z</time>
      </trkpt>
      <trkpt lat="48.6138" lon="-3.83004">
        <ele>61</ele>
        <time>2022-05-13T14:04:29Z</time>
      </trkpt>
      <trkpt lat="48.61342" lon="-3.8301">
        <ele>61</ele>
        <time>2022-05-13T14:04:36Z</time>
      </trkpt>
      <trkpt lat="48.61295" lon="-3.82995">
        <ele>62</ele>
        <time>2022-05-13T14:04:44Z</time>
      </trkpt>
      <trkpt lat="48.61192" lon="-3.82989">
        <ele>65</ele>
        <time>2022-05-13T14:05:02Z</time>
      </trkpt>
      <trkpt lat="48.61177" lon="-3.82995">
        <ele>66</ele>
        <time>2022-05-13T14:05:05Z</time>
      </trkpt>
      <trkpt lat="48.61168" lon="-3.83006">
        <ele>66</ele>
        <time>2022-05-13T14:05:07Z</time>
      </trkpt>
      <trkpt lat="48.61155" lon="-3.83">
        <ele>66</ele>
        <time>2022-05-13T14:05:10Z</time>
      </trkpt>
      <trkpt lat="48.61131" lon="-3.83023">
        <ele>67</ele>
        <time>2022-05-13T14:05:15Z</time>
      </trkpt>
      <trkpt lat="48.61116" lon="-3.8303">
        <ele>67</ele>
        <time>2022-05-13T14:05:17Z</time>
      </trkpt>
      <trkpt lat="48.61104" lon="-3.83032">
        <ele>68</ele>
        <time>2022-05-13T14:05:20Z</time>
      </trkpt>
      <trkpt lat="48.61077" lon="-3.83031">
        <ele>68</ele>
        <time>2022-05-13T14:05:24Z</time>
      </trkpt>
      <trkpt lat="48.61049" lon="-3.83025">
        <ele>67</ele>
        <time>2022-05-13T14:05:29Z</time>
      </trkpt>
      <trkpt lat="48.60981" lon="-3.83004">
        <ele>67</ele>
        <time>2022-05-13T14:05:42Z</time>
      </trkpt>
      <trkpt lat="48.60956" lon="-3.83003">
        <ele>67</ele>
        <time>2022-05-13T14:05:46Z</time>
      </trkpt>
      <trkpt lat="48.60894" lon="-3.83039">
        <ele>67</ele>
        <time>2022-05-13T14:05:58Z</time>
      </trkpt>
      <trkpt lat="48.60866" lon="-3.83047">
        <ele>67</ele>
        <time>2022-05-13T14:06:03Z</time>
      </trkpt>
      <trkpt lat="48.60847" lon="-3.83048">
        <ele>67</ele>
        <time>2022-05-13T14:06:07Z</time>
      </trkpt>
      <trkpt lat="48.60811" lon="-3.83042">
        <ele>68</ele>
        <time>2022-05-13T14:06:13Z</time>
      </trkpt>
      <trkpt lat="48.60795" lon="-3.83045">
        <ele>68</ele>
        <time>2022-05-13T14:06:16Z</time>
      </trkpt>
      <trkpt lat="48.60773" lon="-3.83059">
        <ele>69</ele>
        <time>2022-05-13T14:06:20Z</time>
      </trkpt>
      <trkpt lat="48.60752" lon="-3.83078">
        <ele>70</ele>
        <time>2022-05-13T14:06:24Z</time>
      </trkpt>
      <trkpt lat="48.60737" lon="-3.83096">
        <ele>70</ele>
        <time>2022-05-13T14:06:28Z</time>
      </trkpt>
      <trkpt lat="48.60642" lon="-3.83241">
        <ele>70</ele>
        <time>2022-05-13T14:06:52Z</time>
      </trkpt>
      <trkpt lat="48.60606" lon="-3.83284">
        <ele>70</ele>
        <time>2022-05-13T14:07:00Z</time>
      </trkpt>
      <trkpt lat="48.60604" lon="-3.8329">
        <ele>70</ele>
        <time>2022-05-13T14:07:01Z</time>
      </trkpt>
      <trkpt lat="48.60566" lon="-3.83343">
        <ele>70</ele>
        <time>2022-05-13T14:07:10Z</time>
      </trkpt>
      <trkpt lat="48.60529" lon="-3.83372">
        <ele>69</ele>
        <time>2022-05-13T14:07:17Z</time>
      </trkpt>
      <trkpt lat="48.60522" lon="-3.8339">
        <ele>69</ele>
        <time>2022-05-13T14:07:20Z</time>
      </trkpt>
      <trkpt lat="48.60519" lon="-3.83413">
        <ele>69</ele>
        <time>2022-05-13T14:07:23Z</time>
      </trkpt>
      <trkpt lat="48.60514" lon="-3.83414">
        <ele>68</ele>
        <time>2022-05-13T14:07:24Z</time>
      </trkpt>
      <trkpt lat="48.60493" lon="-3.83417">
        <ele>68</ele>
        <time>2022-05-13T14:07:27Z</time>
      </trkpt>
      <trkpt lat="48.60465" lon="-3.83417">
        <ele>67</ele>
        <time>2022-05-13T14:07:32Z</time>
      </trkpt>
      <trkpt lat="48.60451" lon="-3.83412">
        <ele>67</ele>
        <time>2022-05-13T14:07:35Z</time>
      </trkpt>
      <trkpt lat="48.6043" lon="-3.8339">
        <ele>66</ele>
        <time>2022-05-13T14:07:39Z</time>
      </trkpt>
      <trkpt lat="48.60425" lon="-3.83381">
        <ele>65</ele>
        <time>2022-05-13T14:07:41Z</time>
      </trkpt>
      <trkpt lat="48.60408" lon="-3.8337">
        <ele>65</ele>
        <time>2022-05-13T14:07:44Z</time>
      </trkpt>
      <trkpt lat="48.60389" lon="-3.83364">
        <ele>64</ele>
        <time>2022-05-13T14:07:48Z</time>
      </trkpt>
      <trkpt lat="48.60361" lon="-3.83345">
        <ele>63</ele>
        <time>2022-05-13T14:07:53Z</time>
      </trkpt>
      <trkpt lat="48.60251" lon="-3.83339">
        <ele>57</ele>
        <time>2022-05-13T14:08:13Z</time>
      </trkpt>
      <trkpt lat="48.6009" lon="-3.8331">
        <ele>51</ele>
        <time>2022-05-13T14:08:41Z</time>
      </trkpt>
      <trkpt lat="48.60042" lon="-3.83309">
        <ele>47</ele>
        <time>2022-05-13T14:08:50Z</time>
      </trkpt>
      <trkpt lat="48.60021" lon="-3.83304">
        <ele>45</ele>
        <time>2022-05-13T14:08:54Z</time>
      </trkpt>
      <trkpt lat="48.59988" lon="-3.83286">
        <ele>43</ele>
        <time>2022-05-13T14:09:00Z</time>
      </trkpt>
      <trkpt lat="48.5991" lon="-3.83234">
        <ele>42</ele>
        <time>2022-05-13T14:09:15Z</time>
      </trkpt>
      <trkpt lat="48.59906" lon="-3.83248">
        <ele>41</ele>
        <time>2022-05-13T14:09:17Z</time>
      </trkpt>
      <trkpt lat="48.59897" lon="-3.83261">
        <ele>41</ele>
        <time>2022-05-13T14:09:19Z</time>
      </trkpt>
      <trkpt lat="48.59885" lon="-3.83293">
        <ele>41</ele>
        <time>2022-05-13T14:09:23Z</time>
      </trkpt>
      <trkpt lat="48.59871" lon="-3.83371">
        <ele>38</ele>
        <time>2022-05-13T14:09:33Z</time>
      </trkpt>
      <trkpt lat="48.59863" lon="-3.83449">
        <ele>35</ele>
        <time>2022-05-13T14:09:42Z</time>
      </trkpt>
      <trkpt lat="48.59855" lon="-3.83475">
        <ele>34</ele>
        <time>2022-05-13T14:09:46Z</time>
      </trkpt>
      <trkpt lat="48.59846" lon="-3.8349">
        <ele>34</ele>
        <time>2022-05-13T14:09:48Z</time>
      </trkpt>
      <trkpt lat="48.59793" lon="-3.83526">
        <ele>34</ele>
        <time>2022-05-13T14:09:58Z</time>
      </trkpt>
      <trkpt lat="48.59779" lon="-3.83542">
        <ele>35</ele>
        <time>2022-05-13T14:10:02Z</time>
      </trkpt>
      <trkpt lat="48.59761" lon="-3.83569">
        <ele>36</ele>
        <time>2022-05-13T14:10:06Z</time>
      </trkpt>
      <trkpt lat="48.59744" lon="-3.83628">
        <ele>37</ele>
        <time>2022-05-13T14:10:14Z</time>
      </trkpt>
      <trkpt lat="48.5971" lon="-3.83722">
        <ele>35</ele>
        <time>2022-05-13T14:10:26Z</time>
      </trkpt>
      <trkpt lat="48.59697" lon="-3.83748">
        <ele>35</ele>
        <time>2022-05-13T14:10:30Z</time>
      </trkpt>
      <trkpt lat="48.59669" lon="-3.83784">
        <ele>36</ele>
        <time>2022-05-13T14:10:37Z</time>
      </trkpt>
      <trkpt lat="48.59621" lon="-3.8381">
        <ele>31</ele>
        <time>2022-05-13T14:10:46Z</time>
      </trkpt>
      <trkpt lat="48.59581" lon="-3.83814">
        <ele>28</ele>
        <time>2022-05-13T14:10:53Z</time>
      </trkpt>
      <trkpt lat="48.59465" lon="-3.83815">
        <ele>22</ele>
        <time>2022-05-13T14:11:13Z</time>
      </trkpt>
      <trkpt lat="48.59343" lon="-3.83771">
        <ele>20</ele>
        <time>2022-05-13T14:11:36Z</time>
      </trkpt>
      <trkpt lat="48.59321" lon="-3.83767">
        <ele>20</ele>
        <time>2022-05-13T14:11:40Z</time>
      </trkpt>
      <trkpt lat="48.59232" lon="-3.83784">
        <ele>17</ele>
        <time>2022-05-13T14:11:56Z</time>
      </trkpt>
      <trkpt lat="48.5915" lon="-3.83834">
        <ele>9</ele>
        <time>2022-05-13T14:12:11Z</time>
      </trkpt>
      <trkpt lat="48.59066" lon="-3.83845">
        <ele>15</ele>
        <time>2022-05-13T14:12:26Z</time>
      </trkpt>
      <trkpt lat="48.59061" lon="-3.83849">
        <ele>14</ele>
        <time>2022-05-13T14:12:27Z</time>
      </trkpt>
      <trkpt lat="48.59056" lon="-3.83861">
        <ele>13</ele>
        <time>2022-05-13T14:12:29Z</time>
      </trkpt>
      <trkpt lat="48.58886" lon="-3.83769">
        <ele>11</ele>
        <time>2022-05-13T14:13:01Z</time>
      </trkpt>
      <trkpt lat="48.58839" lon="-3.83746">
        <ele>9</ele>
        <time>2022-05-13T14:13:10Z</time>
      </trkpt>
      <trkpt lat="48.58795" lon="-3.83719">
        <ele>11</ele>
        <time>2022-05-13T14:13:18Z</time>
      </trkpt>
      <trkpt lat="48.58786" lon="-3.8371">
        <ele>12</ele>
        <time>2022-05-13T14:13:20Z</time>
      </trkpt>
      <trkpt lat="48.58784" lon="-3.83701">
        <ele>13</ele>
        <time>2022-05-13T14:13:21Z</time>
      </trkpt>
      <trkpt lat="48.58723" lon="-3.83682">
        <ele>11</ele>
        <time>2022-05-13T14:13:33Z</time>
      </trkpt>
      <trkpt lat="48.58603" lon="-3.83606">
        <ele>11</ele>
        <time>2022-05-13T14:13:56Z</time>
      </trkpt>
      <trkpt lat="48.58457" lon="-3.83418">
        <ele>13</ele>
        <time>2022-05-13T14:14:30Z</time>
      </trkpt>
      <trkpt lat="48.58433" lon="-3.83401">
        <ele>12</ele>
        <time>2022-05-13T14:14:35Z</time>
      </trkpt>
      <trkpt lat="48.58385" lon="-3.83383">
        <ele>11</ele>
        <time>2022-05-13T14:14:43Z</time>
      </trkpt>
      <trkpt lat="48.58347" lon="-3.83358">
        <ele>11</ele>
        <time>2022-05-13T14:14:51Z</time>
      </trkpt>
      <trkpt lat="48.58219" lon="-3.83248">
        <ele>12</ele>
        <time>2022-05-13T14:15:17Z</time>
      </trkpt>
      <trkpt lat="48.5819" lon="-3.83216">
        <ele>11</ele>
        <time>2022-05-13T14:15:23Z</time>
      </trkpt>
      <trkpt lat="48.58173" lon="-3.83202">
        <ele>10</ele>
        <time>2022-05-13T14:15:27Z</time>
      </trkpt>
      <trkpt lat="48.5816" lon="-3.83201">
        <ele>11</ele>
        <time>2022-05-13T14:15:29Z</time>
      </trkpt>
      <trkpt lat="48.58155" lon="-3.83209">
        <ele>12</ele>
        <time>2022-05-13T14:15:30Z</time>
      </trkpt>
      <trkpt lat="48.58155" lon="-3.83226">
        <ele>12</ele>
        <time>2022-05-13T14:15:32Z</time>
      </trkpt>
      <trkpt lat="48.5816" lon="-3.83242">
        <ele>11</ele>
        <time>2022-05-13T14:15:34Z</time>
      </trkpt>
      <trkpt lat="48.58206" lon="-3.83313">
        <ele>13</ele>
        <time>2022-05-13T14:15:46Z</time>
      </trkpt>
      <trkpt lat="48.58231" lon="-3.83337">
        <ele>12</ele>
        <time>2022-05-13T14:15:51Z</time>
      </trkpt>
      <trkpt lat="48.58374" lon="-3.83459">
        <ele>8</ele>
        <time>2022-05-13T14:16:21Z</time>
      </trkpt>
      <trkpt lat="48.58423" lon="-3.83505">
        <ele>7</ele>
        <time>2022-05-13T14:16:31Z</time>
      </trkpt>
      <trkpt lat="48.58429" lon="-3.83524">
        <ele>8</ele>
        <time>2022-05-13T14:16:33Z</time>
      </trkpt>
      <trkpt lat="48.58431" lon="-3.83593">
        <ele>9</ele>
        <time>2022-05-13T14:16:41Z</time>
      </trkpt>
      <trkpt lat="48.58435" lon="-3.83609">
        <ele>10</ele>
        <time>2022-05-13T14:16:43Z</time>
      </trkpt>
      <trkpt lat="48.58485" lon="-3.83649">
        <ele>8</ele>
        <time>2022-05-13T14:16:54Z</time>
      </trkpt>
      <trkpt lat="48.58489" lon="-3.83644">
        <ele>7</ele>
        <time>2022-05-13T14:16:54Z</time>
      </trkpt>
      <trkpt lat="48.58494" lon="-3.83646">
        <ele>7</ele>
        <time>2022-05-13T14:16:55Z</time>
      </trkpt>
      <trkpt lat="48.58496" lon="-3.83657">
        <ele>7</ele>
        <time>2022-05-13T14:16:57Z</time>
      </trkpt>
      <trkpt lat="48.58542" lon="-3.83694">
        <ele>14</ele>
        <time>2022-05-13T14:17:06Z</time>
      </trkpt>
      <trkpt lat="48.58561" lon="-3.83705">
        <ele>17</ele>
        <time>2022-05-13T14:17:10Z</time>
      </trkpt>
      <trkpt lat="48.58605" lon="-3.83712">
        <ele>18</ele>
        <time>2022-05-13T14:17:18Z</time>
      </trkpt>
      <trkpt lat="48.58616" lon="-3.83716">
        <ele>17</ele>
        <time>2022-05-13T14:17:20Z</time>
      </trkpt>
      <trkpt lat="48.58686" lon="-3.83767">
        <ele>14</ele>
        <time>2022-05-13T14:17:33Z</time>
      </trkpt>
      <trkpt lat="48.58686" lon="-3.83789">
        <ele>16</ele>
        <time>2022-05-13T14:17:36Z</time>
      </trkpt>
      <trkpt lat="48.58691" lon="-3.83818">
        <ele>18</ele>
        <time>2022-05-13T14:17:39Z</time>
      </trkpt>
      <trkpt lat="48.58688" lon="-3.83855">
        <ele>21</ele>
        <time>2022-05-13T14:17:44Z</time>
      </trkpt>
      <trkpt lat="48.58666" lon="-3.83935">
        <ele>23</ele>
        <time>2022-05-13T14:17:54Z</time>
      </trkpt>
      <trkpt lat="48.58597" lon="-3.84145">
        <ele>38</ele>
        <time>2022-05-13T14:18:22Z</time>
      </trkpt>
      <trkpt lat="48.58592" lon="-3.84174">
        <ele>38</ele>
        <time>2022-05-13T14:18:25Z</time>
      </trkpt>
      <trkpt lat="48.58586" lon="-3.84265">
        <ele>40</ele>
        <time>2022-05-13T14:18:36Z</time>
      </trkpt>
      <trkpt lat="48.58587" lon="-3.84278">
        <ele>40</ele>
        <time>2022-05-13T14:18:37Z</time>
      </trkpt>
      <trkpt lat="48.58591" lon="-3.84286">
        <ele>40</ele>
        <time>2022-05-13T14:18:39Z</time>
      </trkpt>
      <trkpt lat="48.58591" lon="-3.84296">
        <ele>41</ele>
        <time>2022-05-13T14:18:40Z</time>
      </trkpt>
      <trkpt lat="48.58572" lon="-3.84316">
        <ele>40</ele>
        <time>2022-05-13T14:18:44Z</time>
      </trkpt>
      <trkpt lat="48.58548" lon="-3.8436">
        <ele>41</ele>
        <time>2022-05-13T14:18:51Z</time>
      </trkpt>
      <trkpt lat="48.58532" lon="-3.8438">
        <ele>41</ele>
        <time>2022-05-13T14:18:54Z</time>
      </trkpt>
      <trkpt lat="48.58269" lon="-3.84647">
        <ele>54</ele>
        <time>2022-05-13T14:19:51Z</time>
      </trkpt>
      <trkpt lat="48.58257" lon="-3.8467">
        <ele>55</ele>
        <time>2022-05-13T14:19:54Z</time>
      </trkpt>
      <trkpt lat="48.58257" lon="-3.84687">
        <ele>56</ele>
        <time>2022-05-13T14:19:56Z</time>
      </trkpt>
      <trkpt lat="48.58266" lon="-3.84709">
        <ele>56</ele>
        <time>2022-05-13T14:19:59Z</time>
      </trkpt>
      <trkpt lat="48.58337" lon="-3.84786">
        <ele>59</ele>
        <time>2022-05-13T14:20:15Z</time>
      </trkpt>
      <trkpt lat="48.58365" lon="-3.84811">
        <ele>60</ele>
        <time>2022-05-13T14:20:21Z</time>
      </trkpt>
      <trkpt lat="48.58378" lon="-3.84819">
        <ele>60</ele>
        <time>2022-05-13T14:20:23Z</time>
      </trkpt>
      <trkpt lat="48.58381" lon="-3.84813">
        <ele>60</ele>
        <time>2022-05-13T14:20:24Z</time>
      </trkpt>
      <trkpt lat="48.58386" lon="-3.84811">
        <ele>59</ele>
        <time>2022-05-13T14:20:25Z</time>
      </trkpt>
      <trkpt lat="48.5839" lon="-3.84813">
        <ele>59</ele>
        <time>2022-05-13T14:20:26Z</time>
      </trkpt>
      <trkpt lat="48.58393" lon="-3.84819">
        <ele>60</ele>
        <time>2022-05-13T14:20:26Z</time>
      </trkpt>
      <trkpt lat="48.58392" lon="-3.84829">
        <ele>60</ele>
        <time>2022-05-13T14:20:28Z</time>
      </trkpt>
      <trkpt lat="48.58404" lon="-3.84839">
        <ele>61</ele>
        <time>2022-05-13T14:20:30Z</time>
      </trkpt>
      <trkpt lat="48.58416" lon="-3.84845">
        <ele>61</ele>
        <time>2022-05-13T14:20:32Z</time>
      </trkpt>
      <trkpt lat="48.58478" lon="-3.84859">
        <ele>62</ele>
        <time>2022-05-13T14:20:44Z</time>
      </trkpt>
      <trkpt lat="48.58501" lon="-3.84867">
        <ele>63</ele>
        <time>2022-05-13T14:20:48Z</time>
      </trkpt>
      <trkpt lat="48.58533" lon="-3.84896">
        <ele>67</ele>
        <time>2022-05-13T14:20:54Z</time>
      </trkpt>
      <trkpt lat="48.58542" lon="-3.84907">
        <ele>68</ele>
        <time>2022-05-13T14:20:56Z</time>
      </trkpt>
      <trkpt lat="48.58513" lon="-3.84922">
        <ele>69</ele>
        <time>2022-05-13T14:21:02Z</time>
      </trkpt>
      <trkpt lat="48.58357" lon="-3.8502">
        <ele>76</ele>
        <time>2022-05-13T14:21:32Z</time>
      </trkpt>
      <trkpt lat="48.58345" lon="-3.85017">
        <ele>75</ele>
        <time>2022-05-13T14:21:34Z</time>
      </trkpt>
      <trkpt lat="48.58296" lon="-3.85043">
        <ele>78</ele>
        <time>2022-05-13T14:21:43Z</time>
      </trkpt>
      <trkpt lat="48.58185" lon="-3.8511">
        <ele>85</ele>
        <time>2022-05-13T14:22:05Z</time>
      </trkpt>
      <trkpt lat="48.58168" lon="-3.85127">
        <ele>87</ele>
        <time>2022-05-13T14:22:08Z</time>
      </trkpt>
      <trkpt lat="48.58151" lon="-3.85132">
        <ele>87</ele>
        <time>2022-05-13T14:22:11Z</time>
      </trkpt>
      <trkpt lat="48.58143" lon="-3.85141">
        <ele>87</ele>
        <time>2022-05-13T14:22:13Z</time>
      </trkpt>
      <trkpt lat="48.58133" lon="-3.85146">
        <ele>87</ele>
        <time>2022-05-13T14:22:15Z</time>
      </trkpt>
      <trkpt lat="48.58122" lon="-3.85157">
        <ele>88</ele>
        <time>2022-05-13T14:22:17Z</time>
      </trkpt>
      <trkpt lat="48.58107" lon="-3.85166">
        <ele>88</ele>
        <time>2022-05-13T14:22:20Z</time>
      </trkpt>
      <trkpt lat="48.57999" lon="-3.85226">
        <ele>89</ele>
        <time>2022-05-13T14:22:41Z</time>
      </trkpt>
      <trkpt lat="48.57995" lon="-3.85225">
        <ele>89</ele>
        <time>2022-05-13T14:22:41Z</time>
      </trkpt>
      <trkpt lat="48.57869" lon="-3.85302">
        <ele>89</ele>
        <time>2022-05-13T14:23:06Z</time>
      </trkpt>
      <trkpt lat="48.578" lon="-3.8534">
        <ele>90</ele>
        <time>2022-05-13T14:23:19Z</time>
      </trkpt>
      <trkpt lat="48.57804" lon="-3.85346">
        <ele>89</ele>
        <time>2022-05-13T14:23:20Z</time>
      </trkpt>
      <trkpt lat="48.57811" lon="-3.8535">
        <ele>90</ele>
        <time>2022-05-13T14:23:21Z</time>
      </trkpt>
      <trkpt lat="48.57828" lon="-3.85344">
        <ele>90</ele>
        <time>2022-05-13T14:23:24Z</time>
      </trkpt>
      <trkpt lat="48.57827" lon="-3.85337">
        <ele>90</ele>
        <time>2022-05-13T14:23:25Z</time>
      </trkpt>
      <trkpt lat="48.57814" lon="-3.85345">
        <ele>90</ele>
        <time>2022-05-13T14:23:27Z</time>
      </trkpt>
      <trkpt lat="48.57825" lon="-3.8539">
        <ele>89</ele>
        <time>2022-05-13T14:23:33Z</time>
      </trkpt>
      <trkpt lat="48.57856" lon="-3.85438">
        <ele>89</ele>
        <time>2022-05-13T14:23:41Z</time>
      </trkpt>
      <trkpt lat="48.57859" lon="-3.85434">
        <ele>89</ele>
        <time>2022-05-13T14:23:42Z</time>
      </trkpt>
      <trkpt lat="48.57866" lon="-3.85432">
        <ele>89</ele>
        <time>2022-05-13T14:23:43Z</time>
      </trkpt>
      <trkpt lat="48.57876" lon="-3.85435">
        <ele>89</ele>
        <time>2022-05-13T14:23:45Z</time>
      </trkpt>
      <trkpt lat="48.57921" lon="-3.85463">
        <ele>89</ele>
        <time>2022-05-13T14:23:53Z</time>
      </trkpt>
      <trkpt lat="48.58021" lon="-3.85511">
        <ele>90</ele>
        <time>2022-05-13T14:24:12Z</time>
      </trkpt>
      <trkpt lat="48.58075" lon="-3.8555">
        <ele>91</ele>
        <time>2022-05-13T14:24:23Z</time>
      </trkpt>
      <trkpt lat="48.58099" lon="-3.85564">
        <ele>92</ele>
        <time>2022-05-13T14:24:27Z</time>
      </trkpt>
      <trkpt lat="48.58153" lon="-3.85586">
        <ele>91</ele>
        <time>2022-05-13T14:24:37Z</time>
      </trkpt>
      <trkpt lat="48.58168" lon="-3.85596">
        <ele>91</ele>
        <time>2022-05-13T14:24:40Z</time>
      </trkpt>
      <trkpt lat="48.58146" lon="-3.85724">
        <ele>87</ele>
        <time>2022-05-13T14:24:56Z</time>
      </trkpt>
      <trkpt lat="48.58254" lon="-3.85815">
        <ele>85</ele>
        <time>2022-05-13T14:25:18Z</time>
      </trkpt>
      <trkpt lat="48.58305" lon="-3.85882">
        <ele>85</ele>
        <time>2022-05-13T14:25:30Z</time>
      </trkpt>
      <trkpt lat="48.58333" lon="-3.85913">
        <ele>85</ele>
        <time>2022-05-13T14:25:36Z</time>
      </trkpt>
      <trkpt lat="48.58362" lon="-3.85939">
        <ele>85</ele>
        <time>2022-05-13T14:25:42Z</time>
      </trkpt>
      <trkpt lat="48.58402" lon="-3.85958">
        <ele>85</ele>
        <time>2022-05-13T14:25:49Z</time>
      </trkpt>
      <trkpt lat="48.58424" lon="-3.85973">
        <ele>86</ele>
        <time>2022-05-13T14:25:54Z</time>
      </trkpt>
      <trkpt lat="48.58465" lon="-3.86018">
        <ele>86</ele>
        <time>2022-05-13T14:26:03Z</time>
      </trkpt>
      <trkpt lat="48.58551" lon="-3.86164">
        <ele>86</ele>
        <time>2022-05-13T14:26:26Z</time>
      </trkpt>
      <trkpt lat="48.58616" lon="-3.8633">
        <ele>87</ele>
        <time>2022-05-13T14:26:48Z</time>
      </trkpt>
      <trkpt lat="48.5855" lon="-3.86399">
        <ele>83</ele>
        <time>2022-05-13T14:27:03Z</time>
      </trkpt>
      <trkpt lat="48.58539" lon="-3.86415">
        <ele>82</ele>
        <time>2022-05-13T14:27:05Z</time>
      </trkpt>
      <trkpt lat="48.5852" lon="-3.86448">
        <ele>80</ele>
        <time>2022-05-13T14:27:11Z</time>
      </trkpt>
      <trkpt lat="48.58495" lon="-3.86509">
        <ele>77</ele>
        <time>2022-05-13T14:27:19Z</time>
      </trkpt>
      <trkpt lat="48.58438" lon="-3.86598">
        <ele>72</ele>
        <time>2022-05-13T14:27:34Z</time>
      </trkpt>
      <trkpt lat="48.58312" lon="-3.86727">
        <ele>55</ele>
        <time>2022-05-13T14:28:01Z</time>
      </trkpt>
      <trkpt lat="48.58237" lon="-3.86811">
        <ele>47</ele>
        <time>2022-05-13T14:28:17Z</time>
      </trkpt>
      <trkpt lat="48.58275" lon="-3.86912">
        <ele>47</ele>
        <time>2022-05-13T14:28:31Z</time>
      </trkpt>
      <trkpt lat="48.58288" lon="-3.86962">
        <ele>46</ele>
        <time>2022-05-13T14:28:37Z</time>
      </trkpt>
      <trkpt lat="48.58309" lon="-3.87027">
        <ele>45</ele>
        <time>2022-05-13T14:28:46Z</time>
      </trkpt>
      <trkpt lat="48.58316" lon="-3.87031">
        <ele>46</ele>
        <time>2022-05-13T14:28:47Z</time>
      </trkpt>
      <trkpt lat="48.58322" lon="-3.87044">
        <ele>46</ele>
        <time>2022-05-13T14:28:49Z</time>
      </trkpt>
      <trkpt lat="48.58322" lon="-3.87059">
        <ele>45</ele>
        <time>2022-05-13T14:28:51Z</time>
      </trkpt>
      <trkpt lat="48.58318" lon="-3.87074">
        <ele>44</ele>
        <time>2022-05-13T14:28:53Z</time>
      </trkpt>
      <trkpt lat="48.58319" lon="-3.87139">
        <ele>42</ele>
        <time>2022-05-13T14:29:00Z</time>
      </trkpt>
      <trkpt lat="48.58314" lon="-3.87173">
        <ele>41</ele>
        <time>2022-05-13T14:29:04Z</time>
      </trkpt>
      <trkpt lat="48.58306" lon="-3.87197">
        <ele>40</ele>
        <time>2022-05-13T14:29:08Z</time>
      </trkpt>
      <trkpt lat="48.58297" lon="-3.87217">
        <ele>38</ele>
        <time>2022-05-13T14:29:10Z</time>
      </trkpt>
      <trkpt lat="48.58246" lon="-3.87293">
        <ele>38</ele>
        <time>2022-05-13T14:29:23Z</time>
      </trkpt>
      <trkpt lat="48.58218" lon="-3.8733">
        <ele>39</ele>
        <time>2022-05-13T14:29:30Z</time>
      </trkpt>
      <trkpt lat="48.58221" lon="-3.87349">
        <ele>40</ele>
        <time>2022-05-13T14:29:32Z</time>
      </trkpt>
      <trkpt lat="48.58217" lon="-3.87363">
        <ele>41</ele>
        <time>2022-05-13T14:29:34Z</time>
      </trkpt>
      <trkpt lat="48.58211" lon="-3.87372">
        <ele>41</ele>
        <time>2022-05-13T14:29:35Z</time>
      </trkpt>
      <trkpt lat="48.58246" lon="-3.87425">
        <ele>42</ele>
        <time>2022-05-13T14:29:44Z</time>
      </trkpt>
      <trkpt lat="48.58261" lon="-3.87455">
        <ele>44</ele>
        <time>2022-05-13T14:29:49Z</time>
      </trkpt>
      <trkpt lat="48.58271" lon="-3.87496">
        <ele>47</ele>
        <time>2022-05-13T14:29:54Z</time>
      </trkpt>
      <trkpt lat="48.58281" lon="-3.87564">
        <ele>50</ele>
        <time>2022-05-13T14:30:02Z</time>
      </trkpt>
      <trkpt lat="48.58281" lon="-3.87655">
        <ele>53</ele>
        <time>2022-05-13T14:30:13Z</time>
      </trkpt>
      <trkpt lat="48.58277" lon="-3.87693">
        <ele>54</ele>
        <time>2022-05-13T14:30:17Z</time>
      </trkpt>
      <trkpt lat="48.58269" lon="-3.87718">
        <ele>55</ele>
        <time>2022-05-13T14:30:20Z</time>
      </trkpt>
      <trkpt lat="48.58225" lon="-3.87804">
        <ele>59</ele>
        <time>2022-05-13T14:30:33Z</time>
      </trkpt>
      <trkpt lat="48.5822" lon="-3.87818">
        <ele>60</ele>
        <time>2022-05-13T14:30:35Z</time>
      </trkpt>
      <trkpt lat="48.58214" lon="-3.8784">
        <ele>60</ele>
        <time>2022-05-13T14:30:38Z</time>
      </trkpt>
      <trkpt lat="48.58211" lon="-3.87877">
        <ele>62</ele>
        <time>2022-05-13T14:30:42Z</time>
      </trkpt>
      <trkpt lat="48.58213" lon="-3.87898">
        <ele>63</ele>
        <time>2022-05-13T14:30:45Z</time>
      </trkpt>
      <trkpt lat="48.5822" lon="-3.8793">
        <ele>64</ele>
        <time>2022-05-13T14:30:49Z</time>
      </trkpt>
      <trkpt lat="48.58226" lon="-3.87946">
        <ele>65</ele>
        <time>2022-05-13T14:30:51Z</time>
      </trkpt>
      <trkpt lat="48.58241" lon="-3.87971">
        <ele>66</ele>
        <time>2022-05-13T14:30:55Z</time>
      </trkpt>
      <trkpt lat="48.58252" lon="-3.87984">
        <ele>67</ele>
        <time>2022-05-13T14:30:57Z</time>
      </trkpt>
      <trkpt lat="48.5827" lon="-3.87996">
        <ele>69</ele>
        <time>2022-05-13T14:31:01Z</time>
      </trkpt>
      <trkpt lat="48.58287" lon="-3.88">
        <ele>69</ele>
        <time>2022-05-13T14:31:04Z</time>
      </trkpt>
      <trkpt lat="48.584" lon="-3.87995">
        <ele>73</ele>
        <time>2022-05-13T14:31:24Z</time>
      </trkpt>
      <trkpt lat="48.58478" lon="-3.87995">
        <ele>77</ele>
        <time>2022-05-13T14:31:38Z</time>
      </trkpt>
      <trkpt lat="48.58486" lon="-3.87997">
        <ele>78</ele>
        <time>2022-05-13T14:31:39Z</time>
      </trkpt>
      <trkpt lat="48.58497" lon="-3.88009">
        <ele>79</ele>
        <time>2022-05-13T14:31:42Z</time>
      </trkpt>
      <trkpt lat="48.585" lon="-3.88023">
        <ele>80</ele>
        <time>2022-05-13T14:31:44Z</time>
      </trkpt>
      <trkpt lat="48.58495" lon="-3.88196">
        <ele>85</ele>
        <time>2022-05-13T14:32:04Z</time>
      </trkpt>
      <trkpt lat="48.58498" lon="-3.88212">
        <ele>86</ele>
        <time>2022-05-13T14:32:06Z</time>
      </trkpt>
      <trkpt lat="48.58574" lon="-3.8848">
        <ele>86</ele>
        <time>2022-05-13T14:32:40Z</time>
      </trkpt>
      <trkpt lat="48.58602" lon="-3.88556">
        <ele>86</ele>
        <time>2022-05-13T14:32:50Z</time>
      </trkpt>
      <trkpt lat="48.58625" lon="-3.88639">
        <ele>84</ele>
        <time>2022-05-13T14:33:01Z</time>
      </trkpt>
      <trkpt lat="48.58646" lon="-3.88738">
        <ele>79</ele>
        <time>2022-05-13T14:33:13Z</time>
      </trkpt>
      <trkpt lat="48.58669" lon="-3.88822">
        <ele>76</ele>
        <time>2022-05-13T14:33:24Z</time>
      </trkpt>
      <trkpt lat="48.58733" lon="-3.88925">
        <ele>81</ele>
        <time>2022-05-13T14:33:41Z</time>
      </trkpt>
      <trkpt lat="48.5877" lon="-3.88975">
        <ele>82</ele>
        <time>2022-05-13T14:33:49Z</time>
      </trkpt>
      <trkpt lat="48.58801" lon="-3.89009">
        <ele>84</ele>
        <time>2022-05-13T14:33:56Z</time>
      </trkpt>
      <trkpt lat="48.58851" lon="-3.89141">
        <ele>90</ele>
        <time>2022-05-13T14:34:14Z</time>
      </trkpt>
      <trkpt lat="48.58869" lon="-3.89172">
        <ele>91</ele>
        <time>2022-05-13T14:34:19Z</time>
      </trkpt>
      <trkpt lat="48.59249" lon="-3.89525">
        <ele>95</ele>
        <time>2022-05-13T14:35:38Z</time>
      </trkpt>
      <trkpt lat="48.5926" lon="-3.89554">
        <ele>94</ele>
        <time>2022-05-13T14:35:42Z</time>
      </trkpt>
      <trkpt lat="48.59293" lon="-3.89678">
        <ele>90</ele>
        <time>2022-05-13T14:35:58Z</time>
      </trkpt>
      <trkpt lat="48.59302" lon="-3.89722">
        <ele>90</ele>
        <time>2022-05-13T14:36:03Z</time>
      </trkpt>
      <trkpt lat="48.59323" lon="-3.89796">
        <ele>90</ele>
        <time>2022-05-13T14:36:13Z</time>
      </trkpt>
      <trkpt lat="48.59386" lon="-3.89934">
        <ele>88</ele>
        <time>2022-05-13T14:36:33Z</time>
      </trkpt>
      <trkpt lat="48.59429" lon="-3.90061">
        <ele>88</ele>
        <time>2022-05-13T14:36:49Z</time>
      </trkpt>
      <trkpt lat="48.59469" lon="-3.90278">
        <ele>86</ele>
        <time>2022-05-13T14:37:16Z</time>
      </trkpt>
      <trkpt lat="48.59454" lon="-3.90389">
        <ele>84</ele>
        <time>2022-05-13T14:37:29Z</time>
      </trkpt>
      <trkpt lat="48.59454" lon="-3.90421">
        <ele>84</ele>
        <time>2022-05-13T14:37:33Z</time>
      </trkpt>
      <trkpt lat="48.59468" lon="-3.90582">
        <ele>80</ele>
        <time>2022-05-13T14:37:52Z</time>
      </trkpt>
      <trkpt lat="48.59458" lon="-3.90672">
        <ele>77</ele>
        <time>2022-05-13T14:38:03Z</time>
      </trkpt>
      <trkpt lat="48.59451" lon="-3.90792">
        <ele>75</ele>
        <time>2022-05-13T14:38:17Z</time>
      </trkpt>
      <trkpt lat="48.59454" lon="-3.90822">
        <ele>75</ele>
        <time>2022-05-13T14:38:21Z</time>
      </trkpt>
      <trkpt lat="48.59465" lon="-3.90884">
        <ele>72</ele>
        <time>2022-05-13T14:38:28Z</time>
      </trkpt>
      <trkpt lat="48.59516" lon="-3.91066">
        <ele>70</ele>
        <time>2022-05-13T14:38:51Z</time>
      </trkpt>
      <trkpt lat="48.5952" lon="-3.91092">
        <ele>70</ele>
        <time>2022-05-13T14:38:55Z</time>
      </trkpt>
      <trkpt lat="48.59511" lon="-3.91245">
        <ele>69</ele>
        <time>2022-05-13T14:39:13Z</time>
      </trkpt>
      <trkpt lat="48.59513" lon="-3.91251">
        <ele>69</ele>
        <time>2022-05-13T14:39:13Z</time>
      </trkpt>
      <trkpt lat="48.59507" lon="-3.91262">
        <ele>68</ele>
        <time>2022-05-13T14:39:15Z</time>
      </trkpt>
      <trkpt lat="48.59487" lon="-3.91285">
        <ele>68</ele>
        <time>2022-05-13T14:39:20Z</time>
      </trkpt>
      <trkpt lat="48.5934" lon="-3.91407">
        <ele>66</ele>
        <time>2022-05-13T14:39:49Z</time>
      </trkpt>
      <trkpt lat="48.59319" lon="-3.91433">
        <ele>66</ele>
        <time>2022-05-13T14:39:54Z</time>
      </trkpt>
      <trkpt lat="48.59302" lon="-3.9148">
        <ele>66</ele>
        <time>2022-05-13T14:40:01Z</time>
      </trkpt>
      <trkpt lat="48.59231" lon="-3.91839">
        <ele>61</ele>
        <time>2022-05-13T14:40:45Z</time>
      </trkpt>
      <trkpt lat="48.59229" lon="-3.91878">
        <ele>61</ele>
        <time>2022-05-13T14:40:49Z</time>
      </trkpt>
      <trkpt lat="48.59235" lon="-3.91921">
        <ele>60</ele>
        <time>2022-05-13T14:40:54Z</time>
      </trkpt>
      <trkpt lat="48.59272" lon="-3.92033">
        <ele>57</ele>
        <time>2022-05-13T14:41:09Z</time>
      </trkpt>
      <trkpt lat="48.5928" lon="-3.92085">
        <ele>56</ele>
        <time>2022-05-13T14:41:15Z</time>
      </trkpt>
      <trkpt lat="48.59278" lon="-3.92125">
        <ele>55</ele>
        <time>2022-05-13T14:41:20Z</time>
      </trkpt>
      <trkpt lat="48.59241" lon="-3.92477">
        <ele>43</ele>
        <time>2022-05-13T14:42:02Z</time>
      </trkpt>
      <trkpt lat="48.59245" lon="-3.92528">
        <ele>40</ele>
        <time>2022-05-13T14:42:08Z</time>
      </trkpt>
      <trkpt lat="48.59252" lon="-3.9255">
        <ele>39</ele>
        <time>2022-05-13T14:42:11Z</time>
      </trkpt>
      <trkpt lat="48.5931" lon="-3.92666">
        <ele>39</ele>
        <time>2022-05-13T14:42:28Z</time>
      </trkpt>
      <trkpt lat="48.59328" lon="-3.92714">
        <ele>38</ele>
        <time>2022-05-13T14:42:35Z</time>
      </trkpt>
      <trkpt lat="48.59341" lon="-3.92765">
        <ele>36</ele>
        <time>2022-05-13T14:42:41Z</time>
      </trkpt>
      <trkpt lat="48.59356" lon="-3.92805">
        <ele>35</ele>
        <time>2022-05-13T14:42:47Z</time>
      </trkpt>
      <trkpt lat="48.59367" lon="-3.92821">
        <ele>35</ele>
        <time>2022-05-13T14:42:49Z</time>
      </trkpt>
      <trkpt lat="48.59376" lon="-3.92828">
        <ele>35</ele>
        <time>2022-05-13T14:42:51Z</time>
      </trkpt>
      <trkpt lat="48.59416" lon="-3.92848">
        <ele>36</ele>
        <time>2022-05-13T14:42:59Z</time>
      </trkpt>
      <trkpt lat="48.59424" lon="-3.92855">
        <ele>36</ele>
        <time>2022-05-13T14:43:00Z</time>
      </trkpt>
      <trkpt lat="48.59433" lon="-3.92869">
        <ele>36</ele>
        <time>2022-05-13T14:43:02Z</time>
      </trkpt>
      <trkpt lat="48.59439" lon="-3.92904">
        <ele>35</ele>
        <time>2022-05-13T14:43:07Z</time>
      </trkpt>
      <trkpt lat="48.59439" lon="-3.92918">
        <ele>34</ele>
        <time>2022-05-13T14:43:08Z</time>
      </trkpt>
      <trkpt lat="48.59433" lon="-3.92939">
        <ele>34</ele>
        <time>2022-05-13T14:43:11Z</time>
      </trkpt>
      <trkpt lat="48.59419" lon="-3.92958">
        <ele>32</ele>
        <time>2022-05-13T14:43:14Z</time>
      </trkpt>
      <trkpt lat="48.59411" lon="-3.92964">
        <ele>32</ele>
        <time>2022-05-13T14:43:16Z</time>
      </trkpt>
      <trkpt lat="48.59367" lon="-3.92985">
        <ele>28</ele>
        <time>2022-05-13T14:43:24Z</time>
      </trkpt>
      <trkpt lat="48.5935" lon="-3.93005">
        <ele>26</ele>
        <time>2022-05-13T14:43:28Z</time>
      </trkpt>
      <trkpt lat="48.59341" lon="-3.9304">
        <ele>24</ele>
        <time>2022-05-13T14:43:32Z</time>
      </trkpt>
      <trkpt lat="48.59343" lon="-3.93085">
        <ele>22</ele>
        <time>2022-05-13T14:43:38Z</time>
      </trkpt>
      <trkpt lat="48.59347" lon="-3.93099">
        <ele>22</ele>
        <time>2022-05-13T14:43:40Z</time>
      </trkpt>
      <trkpt lat="48.59364" lon="-3.93129">
        <ele>22</ele>
        <time>2022-05-13T14:43:44Z</time>
      </trkpt>
      <trkpt lat="48.59406" lon="-3.93188">
        <ele>23</ele>
        <time>2022-05-13T14:43:54Z</time>
      </trkpt>
      <trkpt lat="48.59436" lon="-3.93222">
        <ele>22</ele>
        <time>2022-05-13T14:44:01Z</time>
      </trkpt>
      <trkpt lat="48.59448" lon="-3.93232">
        <ele>21</ele>
        <time>2022-05-13T14:44:04Z</time>
      </trkpt>
      <trkpt lat="48.59461" lon="-3.93239">
        <ele>21</ele>
        <time>2022-05-13T14:44:06Z</time>
      </trkpt>
      <trkpt lat="48.59573" lon="-3.9327">
        <ele>17</ele>
        <time>2022-05-13T14:44:26Z</time>
      </trkpt>
      <trkpt lat="48.59624" lon="-3.93287">
        <ele>15</ele>
        <time>2022-05-13T14:44:36Z</time>
      </trkpt>
      <trkpt lat="48.59736" lon="-3.93367">
        <ele>9</ele>
        <time>2022-05-13T14:44:58Z</time>
      </trkpt>
      <trkpt lat="48.59762" lon="-3.93388">
        <ele>8</ele>
        <time>2022-05-13T14:45:03Z</time>
      </trkpt>
      <trkpt lat="48.5983" lon="-3.93535">
        <ele>5</ele>
        <time>2022-05-13T14:45:24Z</time>
      </trkpt>
      <trkpt lat="48.59835" lon="-3.93542">
        <ele>5</ele>
        <time>2022-05-13T14:45:25Z</time>
      </trkpt>
      <trkpt lat="48.59847" lon="-3.9355">
        <ele>6</ele>
        <time>2022-05-13T14:45:27Z</time>
      </trkpt>
      <trkpt lat="48.59872" lon="-3.93561">
        <ele>5</ele>
        <time>2022-05-13T14:45:32Z</time>
      </trkpt>
      <trkpt lat="48.59899" lon="-3.93584">
        <ele>5</ele>
        <time>2022-05-13T14:45:38Z</time>
      </trkpt>
      <trkpt lat="48.5996" lon="-3.93661">
        <ele>9</ele>
        <time>2022-05-13T14:45:52Z</time>
      </trkpt>
      <trkpt lat="48.59984" lon="-3.93703">
        <ele>10</ele>
        <time>2022-05-13T14:45:58Z</time>
      </trkpt>
      <trkpt lat="48.60039" lon="-3.9383">
        <ele>11</ele>
        <time>2022-05-13T14:46:16Z</time>
      </trkpt>
      <trkpt lat="48.60054" lon="-3.93858">
        <ele>11</ele>
        <time>2022-05-13T14:46:20Z</time>
      </trkpt>
      <trkpt lat="48.60146" lon="-3.93997">
        <ele>10</ele>
        <time>2022-05-13T14:46:44Z</time>
      </trkpt>
      <trkpt lat="48.60184" lon="-3.94037">
        <ele>12</ele>
        <time>2022-05-13T14:46:52Z</time>
      </trkpt>
      <trkpt lat="48.60288" lon="-3.94115">
        <ele>18</ele>
        <time>2022-05-13T14:47:12Z</time>
      </trkpt>
      <trkpt lat="48.6034" lon="-3.94151">
        <ele>22</ele>
        <time>2022-05-13T14:47:23Z</time>
      </trkpt>
      <trkpt lat="48.60369" lon="-3.94163">
        <ele>22</ele>
        <time>2022-05-13T14:47:28Z</time>
      </trkpt>
      <trkpt lat="48.60472" lon="-3.94183">
        <ele>19</ele>
        <time>2022-05-13T14:47:46Z</time>
      </trkpt>
      <trkpt lat="48.605" lon="-3.94184">
        <ele>17</ele>
        <time>2022-05-13T14:47:51Z</time>
      </trkpt>
      <trkpt lat="48.60518" lon="-3.94178">
        <ele>17</ele>
        <time>2022-05-13T14:47:55Z</time>
      </trkpt>
      <trkpt lat="48.6056" lon="-3.94154">
        <ele>15</ele>
        <time>2022-05-13T14:48:03Z</time>
      </trkpt>
      <trkpt lat="48.60581" lon="-3.94146">
        <ele>14</ele>
        <time>2022-05-13T14:48:07Z</time>
      </trkpt>
      <trkpt lat="48.6067" lon="-3.94134">
        <ele>17</ele>
        <time>2022-05-13T14:48:22Z</time>
      </trkpt>
      <trkpt lat="48.6075" lon="-3.94137">
        <ele>15</ele>
        <time>2022-05-13T14:48:37Z</time>
      </trkpt>
      <trkpt lat="48.60787" lon="-3.94151">
        <ele>13</ele>
        <time>2022-05-13T14:48:43Z</time>
      </trkpt>
      <trkpt lat="48.60889" lon="-3.94236">
        <ele>13</ele>
        <time>2022-05-13T14:49:04Z</time>
      </trkpt>
      <trkpt lat="48.60902" lon="-3.94242">
        <ele>13</ele>
        <time>2022-05-13T14:49:07Z</time>
      </trkpt>
      <trkpt lat="48.60962" lon="-3.9426">
        <ele>11</ele>
        <time>2022-05-13T14:49:17Z</time>
      </trkpt>
      <trkpt lat="48.60974" lon="-3.94268">
        <ele>11</ele>
        <time>2022-05-13T14:49:20Z</time>
      </trkpt>
      <trkpt lat="48.61047" lon="-3.94341">
        <ele>14</ele>
        <time>2022-05-13T14:49:35Z</time>
      </trkpt>
      <trkpt lat="48.61153" lon="-3.94431">
        <ele>16</ele>
        <time>2022-05-13T14:49:57Z</time>
      </trkpt>
      <trkpt lat="48.61192" lon="-3.94473">
        <ele>17</ele>
        <time>2022-05-13T14:50:06Z</time>
      </trkpt>
      <trkpt lat="48.61238" lon="-3.94532">
        <ele>17</ele>
        <time>2022-05-13T14:50:16Z</time>
      </trkpt>
      <trkpt lat="48.61312" lon="-3.94603">
        <ele>16</ele>
        <time>2022-05-13T14:50:32Z</time>
      </trkpt>
      <trkpt lat="48.61354" lon="-3.94637">
        <ele>15</ele>
        <time>2022-05-13T14:50:40Z</time>
      </trkpt>
      <trkpt lat="48.61374" lon="-3.9465">
        <ele>15</ele>
        <time>2022-05-13T14:50:44Z</time>
      </trkpt>
      <trkpt lat="48.61426" lon="-3.94676">
        <ele>16</ele>
        <time>2022-05-13T14:50:54Z</time>
      </trkpt>
      <trkpt lat="48.61455" lon="-3.94697">
        <ele>15</ele>
        <time>2022-05-13T14:51:00Z</time>
      </trkpt>
      <trkpt lat="48.61483" lon="-3.9473">
        <ele>17</ele>
        <time>2022-05-13T14:51:06Z</time>
      </trkpt>
      <trkpt lat="48.61545" lon="-3.94836">
        <ele>17</ele>
        <time>2022-05-13T14:51:23Z</time>
      </trkpt>
      <trkpt lat="48.61578" lon="-3.94883">
        <ele>15</ele>
        <time>2022-05-13T14:51:31Z</time>
      </trkpt>
      <trkpt lat="48.61604" lon="-3.94906">
        <ele>15</ele>
        <time>2022-05-13T14:51:36Z</time>
      </trkpt>
      <trkpt lat="48.61672" lon="-3.94951">
        <ele>13</ele>
        <time>2022-05-13T14:51:49Z</time>
      </trkpt>
      <trkpt lat="48.61708" lon="-3.94981">
        <ele>15</ele>
        <time>2022-05-13T14:51:57Z</time>
      </trkpt>
      <trkpt lat="48.61726" lon="-3.95007">
        <ele>16</ele>
        <time>2022-05-13T14:52:01Z</time>
      </trkpt>
      <trkpt lat="48.61733" lon="-3.95022">
        <ele>17</ele>
        <time>2022-05-13T14:52:03Z</time>
      </trkpt>
      <trkpt lat="48.61758" lon="-3.95084">
        <ele>17</ele>
        <time>2022-05-13T14:52:12Z</time>
      </trkpt>
      <trkpt lat="48.61826" lon="-3.95269">
        <ele>6</ele>
        <time>2022-05-13T14:52:37Z</time>
      </trkpt>
      <trkpt lat="48.61845" lon="-3.95314">
        <ele>7</ele>
        <time>2022-05-13T14:52:43Z</time>
      </trkpt>
      <trkpt lat="48.61864" lon="-3.95343">
        <ele>9</ele>
        <time>2022-05-13T14:52:48Z</time>
      </trkpt>
      <trkpt lat="48.61891" lon="-3.95366">
        <ele>11</ele>
        <time>2022-05-13T14:52:53Z</time>
      </trkpt>
      <trkpt lat="48.61923" lon="-3.95378">
        <ele>13</ele>
        <time>2022-05-13T14:52:59Z</time>
      </trkpt>
      <trkpt lat="48.61942" lon="-3.95377">
        <ele>13</ele>
        <time>2022-05-13T14:53:02Z</time>
      </trkpt>
      <trkpt lat="48.62078" lon="-3.95345">
        <ele>11</ele>
        <time>2022-05-13T14:53:27Z</time>
      </trkpt>
      <trkpt lat="48.62096" lon="-3.95345">
        <ele>11</ele>
        <time>2022-05-13T14:53:30Z</time>
      </trkpt>
      <trkpt lat="48.62192" lon="-3.95356">
        <ele>9</ele>
        <time>2022-05-13T14:53:47Z</time>
      </trkpt>
      <trkpt lat="48.62227" lon="-3.95366">
        <ele>9</ele>
        <time>2022-05-13T14:53:54Z</time>
      </trkpt>
      <trkpt lat="48.62285" lon="-3.95408">
        <ele>9</ele>
        <time>2022-05-13T14:54:05Z</time>
      </trkpt>
      <trkpt lat="48.62304" lon="-3.95414">
        <ele>9</ele>
        <time>2022-05-13T14:54:08Z</time>
      </trkpt>
      <trkpt lat="48.62561" lon="-3.95448">
        <ele>7</ele>
        <time>2022-05-13T14:54:54Z</time>
      </trkpt>
      <trkpt lat="48.62601" lon="-3.95456">
        <ele>7</ele>
        <time>2022-05-13T14:55:02Z</time>
      </trkpt>
      <trkpt lat="48.62632" lon="-3.95473">
        <ele>7</ele>
        <time>2022-05-13T14:55:07Z</time>
      </trkpt>
      <trkpt lat="48.6264" lon="-3.95484">
        <ele>8</ele>
        <time>2022-05-13T14:55:09Z</time>
      </trkpt>
      <trkpt lat="48.62649" lon="-3.95504">
        <ele>8</ele>
        <time>2022-05-13T14:55:12Z</time>
      </trkpt>
      <trkpt lat="48.62654" lon="-3.95532">
        <ele>9</ele>
        <time>2022-05-13T14:55:16Z</time>
      </trkpt>
      <trkpt lat="48.62654" lon="-3.95563">
        <ele>10</ele>
        <time>2022-05-13T14:55:19Z</time>
      </trkpt>
      <trkpt lat="48.62648" lon="-3.9564">
        <ele>13</ele>
        <time>2022-05-13T14:55:28Z</time>
      </trkpt>
      <trkpt lat="48.62659" lon="-3.95707">
        <ele>14</ele>
        <time>2022-05-13T14:55:37Z</time>
      </trkpt>
      <trkpt lat="48.62662" lon="-3.95747">
        <ele>16</ele>
        <time>2022-05-13T14:55:41Z</time>
      </trkpt>
      <trkpt lat="48.62654" lon="-3.9584">
        <ele>22</ele>
        <time>2022-05-13T14:55:52Z</time>
      </trkpt>
      <trkpt lat="48.62658" lon="-3.95895">
        <ele>21</ele>
        <time>2022-05-13T14:55:59Z</time>
      </trkpt>
      <trkpt lat="48.62684" lon="-3.96057">
        <ele>21</ele>
        <time>2022-05-13T14:56:18Z</time>
      </trkpt>
      <trkpt lat="48.62692" lon="-3.96088">
        <ele>20</ele>
        <time>2022-05-13T14:56:22Z</time>
      </trkpt>
      <trkpt lat="48.62704" lon="-3.96116">
        <ele>18</ele>
        <time>2022-05-13T14:56:26Z</time>
      </trkpt>
      <trkpt lat="48.62712" lon="-3.96126">
        <ele>18</ele>
        <time>2022-05-13T14:56:28Z</time>
      </trkpt>
      <trkpt lat="48.62762" lon="-3.96162">
        <ele>16</ele>
        <time>2022-05-13T14:56:38Z</time>
      </trkpt>
      <trkpt lat="48.62779" lon="-3.9618">
        <ele>18</ele>
        <time>2022-05-13T14:56:42Z</time>
      </trkpt>
      <trkpt lat="48.62824" lon="-3.96247">
        <ele>16</ele>
        <time>2022-05-13T14:56:53Z</time>
      </trkpt>
      <trkpt lat="48.62851" lon="-3.96274">
        <ele>17</ele>
        <time>2022-05-13T14:56:59Z</time>
      </trkpt>
      <trkpt lat="48.6298" lon="-3.96374">
        <ele>24</ele>
        <time>2022-05-13T14:57:24Z</time>
      </trkpt>
      <trkpt lat="48.63055" lon="-3.96411">
        <ele>27</ele>
        <time>2022-05-13T14:57:38Z</time>
      </trkpt>
      <trkpt lat="48.63072" lon="-3.96423">
        <ele>28</ele>
        <time>2022-05-13T14:57:42Z</time>
      </trkpt>
      <trkpt lat="48.63087" lon="-3.96437">
        <ele>29</ele>
        <time>2022-05-13T14:57:45Z</time>
      </trkpt>
      <trkpt lat="48.63157" lon="-3.96518">
        <ele>31</ele>
        <time>2022-05-13T14:58:01Z</time>
      </trkpt>
      <trkpt lat="48.63208" lon="-3.9656">
        <ele>32</ele>
        <time>2022-05-13T14:58:11Z</time>
      </trkpt>
      <trkpt lat="48.63232" lon="-3.96577">
        <ele>32</ele>
        <time>2022-05-13T14:58:16Z</time>
      </trkpt>
      <trkpt lat="48.6329" lon="-3.96611">
        <ele>37</ele>
        <time>2022-05-13T14:58:27Z</time>
      </trkpt>
      <trkpt lat="48.63537" lon="-3.96782">
        <ele>49</ele>
        <time>2022-05-13T14:59:15Z</time>
      </trkpt>
      <trkpt lat="48.63814" lon="-3.96945">
        <ele>58</ele>
        <time>2022-05-13T15:00:08Z</time>
      </trkpt>
      <trkpt lat="48.63826" lon="-3.96949">
        <ele>59</ele>
        <time>2022-05-13T15:00:10Z</time>
      </trkpt>
      <trkpt lat="48.63839" lon="-3.9695">
        <ele>59</ele>
        <time>2022-05-13T15:00:12Z</time>
      </trkpt>
      <trkpt lat="48.63853" lon="-3.96945">
        <ele>59</ele>
        <time>2022-05-13T15:00:15Z</time>
      </trkpt>
      <trkpt lat="48.63866" lon="-3.96936">
        <ele>59</ele>
        <time>2022-05-13T15:00:18Z</time>
      </trkpt>
      <trkpt lat="48.63903" lon="-3.96898">
        <ele>60</ele>
        <time>2022-05-13T15:00:25Z</time>
      </trkpt>
      <trkpt lat="48.6391" lon="-3.96879">
        <ele>59</ele>
        <time>2022-05-13T15:00:28Z</time>
      </trkpt>
      <trkpt lat="48.6395" lon="-3.96819">
        <ele>59</ele>
        <time>2022-05-13T15:00:38Z</time>
      </trkpt>
      <trkpt lat="48.64373" lon="-3.96219">
        <ele>47</ele>
        <time>2022-05-13T15:02:21Z</time>
      </trkpt>
      <trkpt lat="48.64363" lon="-3.96202">
        <ele>47</ele>
        <time>2022-05-13T15:02:24Z</time>
      </trkpt>
      <trkpt lat="48.64356" lon="-3.96181">
        <ele>47</ele>
        <time>2022-05-13T15:02:27Z</time>
      </trkpt>
      <trkpt lat="48.64347" lon="-3.96102">
        <ele>44</ele>
        <time>2022-05-13T15:02:36Z</time>
      </trkpt>
      <trkpt lat="48.64342" lon="-3.96048">
        <ele>42</ele>
        <time>2022-05-13T15:02:42Z</time>
      </trkpt>
      <trkpt lat="48.64345" lon="-3.96018">
        <ele>41</ele>
        <time>2022-05-13T15:02:46Z</time>
      </trkpt>
      <trkpt lat="48.64352" lon="-3.95994">
        <ele>40</ele>
        <time>2022-05-13T15:02:49Z</time>
      </trkpt>
      <trkpt lat="48.64413" lon="-3.95853">
        <ele>33</ele>
        <time>2022-05-13T15:03:09Z</time>
      </trkpt>
      <trkpt lat="48.64433" lon="-3.95816">
        <ele>31</ele>
        <time>2022-05-13T15:03:15Z</time>
      </trkpt>
      <trkpt lat="48.64571" lon="-3.95644">
        <ele>15</ele>
        <time>2022-05-13T15:03:46Z</time>
      </trkpt>
      <trkpt lat="48.64573" lon="-3.95632">
        <ele>14</ele>
        <time>2022-05-13T15:03:48Z</time>
      </trkpt>
      <trkpt lat="48.6457" lon="-3.95623">
        <ele>14</ele>
        <time>2022-05-13T15:03:49Z</time>
      </trkpt>
      <trkpt lat="48.64534" lon="-3.95578">
        <ele>15</ele>
        <time>2022-05-13T15:03:57Z</time>
      </trkpt>
      <trkpt lat="48.64521" lon="-3.95556">
        <ele>16</ele>
        <time>2022-05-13T15:04:01Z</time>
      </trkpt>
      <trkpt lat="48.64505" lon="-3.95517">
        <ele>17</ele>
        <time>2022-05-13T15:04:06Z</time>
      </trkpt>
      <trkpt lat="48.64489" lon="-3.95449">
        <ele>17</ele>
        <time>2022-05-13T15:04:15Z</time>
      </trkpt>
      <trkpt lat="48.64482" lon="-3.9539">
        <ele>15</ele>
        <time>2022-05-13T15:04:22Z</time>
      </trkpt>
      <trkpt lat="48.64486" lon="-3.95372">
        <ele>14</ele>
        <time>2022-05-13T15:04:24Z</time>
      </trkpt>
      <trkpt lat="48.64517" lon="-3.95426">
        <ele>14</ele>
        <time>2022-05-13T15:04:32Z</time>
      </trkpt>
      <trkpt lat="48.64606" lon="-3.95563">
        <ele>8</ele>
        <time>2022-05-13T15:04:55Z</time>
      </trkpt>
      <trkpt lat="48.64637" lon="-3.95607">
        <ele>8</ele>
        <time>2022-05-13T15:05:03Z</time>
      </trkpt>
      <trkpt lat="48.64661" lon="-3.9563">
        <ele>8</ele>
        <time>2022-05-13T15:05:08Z</time>
      </trkpt>
      <trkpt lat="48.64717" lon="-3.95639">
        <ele>7</ele>
        <time>2022-05-13T15:05:18Z</time>
      </trkpt>
      <trkpt lat="48.64733" lon="-3.95646">
        <ele>7</ele>
        <time>2022-05-13T15:05:21Z</time>
      </trkpt>
      <trkpt lat="48.6476" lon="-3.95671">
        <ele>8</ele>
        <time>2022-05-13T15:05:26Z</time>
      </trkpt>
      <trkpt lat="48.64773" lon="-3.95696">
        <ele>9</ele>
        <time>2022-05-13T15:05:30Z</time>
      </trkpt>
      <trkpt lat="48.64788" lon="-3.95757">
        <ele>12</ele>
        <time>2022-05-13T15:05:38Z</time>
      </trkpt>
      <trkpt lat="48.64789" lon="-3.95774">
        <ele>13</ele>
        <time>2022-05-13T15:05:40Z</time>
      </trkpt>
      <trkpt lat="48.64818" lon="-3.95792">
        <ele>12</ele>
        <time>2022-05-13T15:05:45Z</time>
      </trkpt>
      <trkpt lat="48.64826" lon="-3.95756">
        <ele>10</ele>
        <time>2022-05-13T15:05:50Z</time>
      </trkpt>
      <trkpt lat="48.64858" lon="-3.95681">
        <ele>6</ele>
        <time>2022-05-13T15:06:00Z</time>
      </trkpt>
      <trkpt lat="48.64872" lon="-3.95637">
        <ele>4</ele>
        <time>2022-05-13T15:06:06Z</time>
      </trkpt>
      <trkpt lat="48.6488" lon="-3.95624">
        <ele>4</ele>
        <time>2022-05-13T15:06:08Z</time>
      </trkpt>
      <trkpt lat="48.64915" lon="-3.95644">
        <ele>5</ele>
        <time>2022-05-13T15:06:15Z</time>
      </trkpt>
      <trkpt lat="48.6492" lon="-3.95653">
        <ele>5</ele>
        <time>2022-05-13T15:06:16Z</time>
      </trkpt>
      <trkpt lat="48.64927" lon="-3.95679">
        <ele>7</ele>
        <time>2022-05-13T15:06:19Z</time>
      </trkpt>
      <trkpt lat="48.64943" lon="-3.95708">
        <ele>8</ele>
        <time>2022-05-13T15:06:24Z</time>
      </trkpt>
      <trkpt lat="48.64954" lon="-3.95748">
        <ele>9</ele>
        <time>2022-05-13T15:06:29Z</time>
      </trkpt>
      <trkpt lat="48.64984" lon="-3.95775">
        <ele>11</ele>
        <time>2022-05-13T15:06:35Z</time>
      </trkpt>
      <trkpt lat="48.64999" lon="-3.95784">
        <ele>11</ele>
        <time>2022-05-13T15:06:38Z</time>
      </trkpt>
      <trkpt lat="48.65037" lon="-3.95789">
        <ele>12</ele>
        <time>2022-05-13T15:06:45Z</time>
      </trkpt>
      <trkpt lat="48.65055" lon="-3.95778">
        <ele>12</ele>
        <time>2022-05-13T15:06:48Z</time>
      </trkpt>
      <trkpt lat="48.65075" lon="-3.95783">
        <ele>13</ele>
        <time>2022-05-13T15:06:52Z</time>
      </trkpt>
      <trkpt lat="48.65087" lon="-3.95789">
        <ele>14</ele>
        <time>2022-05-13T15:06:54Z</time>
      </trkpt>
      <trkpt lat="48.65092" lon="-3.95777">
        <ele>13</ele>
        <time>2022-05-13T15:06:56Z</time>
      </trkpt>
      <trkpt lat="48.65095" lon="-3.95759">
        <ele>12</ele>
        <time>2022-05-13T15:06:58Z</time>
      </trkpt>
      <trkpt lat="48.65131" lon="-3.95761">
        <ele>13</ele>
        <time>2022-05-13T15:07:04Z</time>
      </trkpt>
      <trkpt lat="48.65143" lon="-3.95759">
        <ele>13</ele>
        <time>2022-05-13T15:07:06Z</time>
      </trkpt>
      <trkpt lat="48.65147" lon="-3.95762">
        <ele>13</ele>
        <time>2022-05-13T15:07:07Z</time>
      </trkpt>
      <trkpt lat="48.65167" lon="-3.95859">
        <ele>17</ele>
        <time>2022-05-13T15:07:19Z</time>
      </trkpt>
      <trkpt lat="48.65167" lon="-3.95872">
        <ele>18</ele>
        <time>2022-05-13T15:07:21Z</time>
      </trkpt>
      <trkpt lat="48.65185" lon="-3.95863">
        <ele>19</ele>
        <time>2022-05-13T15:07:24Z</time>
      </trkpt>
      <trkpt lat="48.65492" lon="-3.95635">
        <ele>19</ele>
        <time>2022-05-13T15:08:25Z</time>
      </trkpt>
      <trkpt lat="48.65529" lon="-3.9561">
        <ele>17</ele>
        <time>2022-05-13T15:08:32Z</time>
      </trkpt>
      <trkpt lat="48.65629" lon="-3.95595">
        <ele>18</ele>
        <time>2022-05-13T15:08:50Z</time>
      </trkpt>
      <trkpt lat="48.65749" lon="-3.95526">
        <ele>19</ele>
        <time>2022-05-13T15:09:13Z</time>
      </trkpt>
      <trkpt lat="48.65772" lon="-3.95509">
        <ele>19</ele>
        <time>2022-05-13T15:09:17Z</time>
      </trkpt>
      <trkpt lat="48.65821" lon="-3.95451">
        <ele>18</ele>
        <time>2022-05-13T15:09:28Z</time>
      </trkpt>
      <trkpt lat="48.65846" lon="-3.95431">
        <ele>17</ele>
        <time>2022-05-13T15:09:33Z</time>
      </trkpt>
      <trkpt lat="48.65916" lon="-3.95429">
        <ele>18</ele>
        <time>2022-05-13T15:09:46Z</time>
      </trkpt>
      <trkpt lat="48.65941" lon="-3.95437">
        <ele>18</ele>
        <time>2022-05-13T15:09:50Z</time>
      </trkpt>
      <trkpt lat="48.65956" lon="-3.95448">
        <ele>18</ele>
        <time>2022-05-13T15:09:53Z</time>
      </trkpt>
      <trkpt lat="48.65964" lon="-3.95457">
        <ele>19</ele>
        <time>2022-05-13T15:09:55Z</time>
      </trkpt>
      <trkpt lat="48.65992" lon="-3.95474">
        <ele>19</ele>
        <time>2022-05-13T15:10:01Z</time>
      </trkpt>
      <trkpt lat="48.66048" lon="-3.95501">
        <ele>19</ele>
        <time>2022-05-13T15:10:11Z</time>
      </trkpt>
      <trkpt lat="48.66075" lon="-3.9552">
        <ele>19</ele>
        <time>2022-05-13T15:10:16Z</time>
      </trkpt>
      <trkpt lat="48.66084" lon="-3.95532">
        <ele>20</ele>
        <time>2022-05-13T15:10:18Z</time>
      </trkpt>
      <trkpt lat="48.66088" lon="-3.95544">
        <ele>20</ele>
        <time>2022-05-13T15:10:20Z</time>
      </trkpt>
      <trkpt lat="48.661" lon="-3.95627">
        <ele>24</ele>
        <time>2022-05-13T15:10:30Z</time>
      </trkpt>
      <trkpt lat="48.66116" lon="-3.95653">
        <ele>25</ele>
        <time>2022-05-13T15:10:34Z</time>
      </trkpt>
      <trkpt lat="48.66246" lon="-3.9576">
        <ele>22</ele>
        <time>2022-05-13T15:11:01Z</time>
      </trkpt>
      <trkpt lat="48.66257" lon="-3.95774">
        <ele>22</ele>
        <time>2022-05-13T15:11:03Z</time>
      </trkpt>
      <trkpt lat="48.6638" lon="-3.96055">
        <ele>28</ele>
        <time>2022-05-13T15:11:43Z</time>
      </trkpt>
      <trkpt lat="48.66411" lon="-3.96148">
        <ele>30</ele>
        <time>2022-05-13T15:11:55Z</time>
      </trkpt>
      <trkpt lat="48.66428" lon="-3.96174">
        <ele>30</ele>
        <time>2022-05-13T15:11:59Z</time>
      </trkpt>
      <trkpt lat="48.66481" lon="-3.9624">
        <ele>30</ele>
        <time>2022-05-13T15:12:11Z</time>
      </trkpt>
      <trkpt lat="48.66492" lon="-3.9625">
        <ele>30</ele>
        <time>2022-05-13T15:12:14Z</time>
      </trkpt>
      <trkpt lat="48.665" lon="-3.96255">
        <ele>30</ele>
        <time>2022-05-13T15:12:15Z</time>
      </trkpt>
      <trkpt lat="48.66531" lon="-3.96262">
        <ele>30</ele>
        <time>2022-05-13T15:12:21Z</time>
      </trkpt>
      <trkpt lat="48.66545" lon="-3.96269">
        <ele>30</ele>
        <time>2022-05-13T15:12:23Z</time>
      </trkpt>
      <trkpt lat="48.66587" lon="-3.9632">
        <ele>30</ele>
        <time>2022-05-13T15:12:33Z</time>
      </trkpt>
      <trkpt lat="48.66634" lon="-3.96359">
        <ele>29</ele>
        <time>2022-05-13T15:12:43Z</time>
      </trkpt>
      <trkpt lat="48.66649" lon="-3.96377">
        <ele>29</ele>
        <time>2022-05-13T15:12:46Z</time>
      </trkpt>
      <trkpt lat="48.66703" lon="-3.9648">
        <ele>26</ele>
        <time>2022-05-13T15:13:01Z</time>
      </trkpt>
      <trkpt lat="48.66713" lon="-3.96492">
        <ele>26</ele>
        <time>2022-05-13T15:13:04Z</time>
      </trkpt>
      <trkpt lat="48.66724" lon="-3.96501">
        <ele>26</ele>
        <time>2022-05-13T15:13:06Z</time>
      </trkpt>
      <trkpt lat="48.66738" lon="-3.96507">
        <ele>25</ele>
        <time>2022-05-13T15:13:09Z</time>
      </trkpt>
      <trkpt lat="48.66765" lon="-3.96511">
        <ele>23</ele>
        <time>2022-05-13T15:13:13Z</time>
      </trkpt>
      <trkpt lat="48.66784" lon="-3.96525">
        <ele>22</ele>
        <time>2022-05-13T15:13:17Z</time>
      </trkpt>
      <trkpt lat="48.66846" lon="-3.96615">
        <ele>17</ele>
        <time>2022-05-13T15:13:32Z</time>
      </trkpt>
      <trkpt lat="48.66859" lon="-3.96654">
        <ele>16</ele>
        <time>2022-05-13T15:13:38Z</time>
      </trkpt>
      <trkpt lat="48.66863" lon="-3.96684">
        <ele>16</ele>
        <time>2022-05-13T15:13:41Z</time>
      </trkpt>
      <trkpt lat="48.66872" lon="-3.96705">
        <ele>15</ele>
        <time>2022-05-13T15:13:44Z</time>
      </trkpt>
      <trkpt lat="48.6691" lon="-3.96751">
        <ele>14</ele>
        <time>2022-05-13T15:13:53Z</time>
      </trkpt>
      <trkpt lat="48.66939" lon="-3.9678">
        <ele>14</ele>
        <time>2022-05-13T15:13:59Z</time>
      </trkpt>
      <trkpt lat="48.66952" lon="-3.96789">
        <ele>14</ele>
        <time>2022-05-13T15:14:01Z</time>
      </trkpt>
      <trkpt lat="48.67004" lon="-3.96799">
        <ele>13</ele>
        <time>2022-05-13T15:14:11Z</time>
      </trkpt>
      <trkpt lat="48.67015" lon="-3.96807">
        <ele>13</ele>
        <time>2022-05-13T15:14:13Z</time>
      </trkpt>
      <trkpt lat="48.67057" lon="-3.96916">
        <ele>13</ele>
        <time>2022-05-13T15:14:28Z</time>
      </trkpt>
      <trkpt lat="48.67097" lon="-3.97011">
        <ele>11</ele>
        <time>2022-05-13T15:14:41Z</time>
      </trkpt>
      <trkpt lat="48.67129" lon="-3.97106">
        <ele>10</ele>
        <time>2022-05-13T15:14:54Z</time>
      </trkpt>
      <trkpt lat="48.6722" lon="-3.97354">
        <ele>8</ele>
        <time>2022-05-13T15:15:27Z</time>
      </trkpt>
      <trkpt lat="48.67231" lon="-3.97375">
        <ele>9</ele>
        <time>2022-05-13T15:15:30Z</time>
      </trkpt>
      <trkpt lat="48.67269" lon="-3.97422">
        <ele>12</ele>
        <time>2022-05-13T15:15:39Z</time>
      </trkpt>
      <trkpt lat="48.67304" lon="-3.97456">
        <ele>12</ele>
        <time>2022-05-13T15:15:46Z</time>
      </trkpt>
      <trkpt lat="48.67355" lon="-3.97498">
        <ele>12</ele>
        <time>2022-05-13T15:15:57Z</time>
      </trkpt>
      <trkpt lat="48.67469" lon="-3.97603">
        <ele>14</ele>
        <time>2022-05-13T15:16:20Z</time>
      </trkpt>
      <trkpt lat="48.67542" lon="-3.97723">
        <ele>13</ele>
        <time>2022-05-13T15:16:39Z</time>
      </trkpt>
      <trkpt lat="48.67601" lon="-3.97859">
        <ele>17</ele>
        <time>2022-05-13T15:16:59Z</time>
      </trkpt>
      <trkpt lat="48.67631" lon="-3.97939">
        <ele>18</ele>
        <time>2022-05-13T15:17:09Z</time>
      </trkpt>
      <trkpt lat="48.67638" lon="-3.97968">
        <ele>18</ele>
        <time>2022-05-13T15:17:13Z</time>
      </trkpt>
      <trkpt lat="48.67642" lon="-3.9801">
        <ele>17</ele>
        <time>2022-05-13T15:17:18Z</time>
      </trkpt>
      <trkpt lat="48.6764" lon="-3.98078">
        <ele>17</ele>
        <time>2022-05-13T15:17:26Z</time>
      </trkpt>
      <trkpt lat="48.67679" lon="-3.98091">
        <ele>17</ele>
        <time>2022-05-13T15:17:33Z</time>
      </trkpt>
      <trkpt lat="48.67813" lon="-3.98117">
        <ele>25</ele>
        <time>2022-05-13T15:17:57Z</time>
      </trkpt>
      <trkpt lat="48.67834" lon="-3.98125">
        <ele>26</ele>
        <time>2022-05-13T15:18:01Z</time>
      </trkpt>
      <trkpt lat="48.67962" lon="-3.98205">
        <ele>28</ele>
        <time>2022-05-13T15:18:26Z</time>
      </trkpt>
      <trkpt lat="48.67981" lon="-3.98221">
        <ele>27</ele>
        <time>2022-05-13T15:18:29Z</time>
      </trkpt>
      <trkpt lat="48.68053" lon="-3.98293">
        <ele>24</ele>
        <time>2022-05-13T15:18:45Z</time>
      </trkpt>
      <trkpt lat="48.68111" lon="-3.98356">
        <ele>26</ele>
        <time>2022-05-13T15:18:58Z</time>
      </trkpt>
      <trkpt lat="48.68129" lon="-3.98371">
        <ele>27</ele>
        <time>2022-05-13T15:19:01Z</time>
      </trkpt>
      <trkpt lat="48.68143" lon="-3.98376">
        <ele>27</ele>
        <time>2022-05-13T15:19:04Z</time>
      </trkpt>
      <trkpt lat="48.68158" lon="-3.98375">
        <ele>28</ele>
        <time>2022-05-13T15:19:06Z</time>
      </trkpt>
      <trkpt lat="48.68184" lon="-3.98368">
        <ele>28</ele>
        <time>2022-05-13T15:19:11Z</time>
      </trkpt>
      <trkpt lat="48.68193" lon="-3.98379">
        <ele>28</ele>
        <time>2022-05-13T15:19:13Z</time>
      </trkpt>
      <trkpt lat="48.68304" lon="-3.98699">
        <ele>33</ele>
        <time>2022-05-13T15:19:56Z</time>
      </trkpt>
      <trkpt lat="48.68439" lon="-3.98654">
        <ele>40</ele>
        <time>2022-05-13T15:20:20Z</time>
      </trkpt>
      <trkpt lat="48.68453" lon="-3.98652">
        <ele>40</ele>
        <time>2022-05-13T15:20:23Z</time>
      </trkpt>
      <trkpt lat="48.68463" lon="-3.98663">
        <ele>41</ele>
        <time>2022-05-13T15:20:25Z</time>
      </trkpt>
      <trkpt lat="48.68493" lon="-3.9873">
        <ele>41</ele>
        <time>2022-05-13T15:20:34Z</time>
      </trkpt>
      <trkpt lat="48.68499" lon="-3.98732">
        <ele>41</ele>
        <time>2022-05-13T15:20:36Z</time>
      </trkpt>
      <trkpt lat="48.68499" lon="-3.9874">
        <ele>41</ele>
        <time>2022-05-13T15:20:36Z</time>
      </trkpt>
      <trkpt lat="48.68532" lon="-3.98752">
        <ele>41</ele>
        <time>2022-05-13T15:20:42Z</time>
      </trkpt>
      <trkpt lat="48.68537" lon="-3.9875">
        <ele>41</ele>
        <time>2022-05-13T15:20:43Z</time>
      </trkpt>
      <trkpt lat="48.68541" lon="-3.98742">
        <ele>42</ele>
        <time>2022-05-13T15:20:45Z</time>
      </trkpt>
      <trkpt lat="48.68562" lon="-3.98664">
        <ele>44</ele>
        <time>2022-05-13T15:20:54Z</time>
      </trkpt>
      <trkpt lat="48.68569" lon="-3.98661">
        <ele>45</ele>
        <time>2022-05-13T15:20:56Z</time>
      </trkpt>
      <trkpt lat="48.68639" lon="-3.9867">
        <ele>48</ele>
        <time>2022-05-13T15:21:08Z</time>
      </trkpt>
      <trkpt lat="48.68644" lon="-3.98577">
        <ele>49</ele>
        <time>2022-05-13T15:21:19Z</time>
      </trkpt>
      <trkpt lat="48.68732" lon="-3.986">
        <ele>51</ele>
        <time>2022-05-13T15:21:35Z</time>
      </trkpt>
      <trkpt lat="48.68737" lon="-3.98605">
        <ele>51</ele>
        <time>2022-05-13T15:21:36Z</time>
      </trkpt>
      <trkpt lat="48.68742" lon="-3.98598">
        <ele>52</ele>
        <time>2022-05-13T15:21:37Z</time>
      </trkpt>
      <trkpt lat="48.68867" lon="-3.98517">
        <ele>54</ele>
        <time>2022-05-13T15:22:02Z</time>
      </trkpt>
      <trkpt lat="48.68959" lon="-3.98475">
        <ele>53</ele>
        <time>2022-05-13T15:22:19Z</time>
      </trkpt>
      <trkpt lat="48.69014" lon="-3.98453">
        <ele>52</ele>
        <time>2022-05-13T15:22:29Z</time>
      </trkpt>
      <trkpt lat="48.69064" lon="-3.98445">
        <ele>50</ele>
        <time>2022-05-13T15:22:38Z</time>
      </trkpt>
      <trkpt lat="48.6913" lon="-3.98452">
        <ele>49</ele>
        <time>2022-05-13T15:22:50Z</time>
      </trkpt>
      <trkpt lat="48.69157" lon="-3.98444">
        <ele>49</ele>
        <time>2022-05-13T15:22:54Z</time>
      </trkpt>
      <trkpt lat="48.69171" lon="-3.98434">
        <ele>48</ele>
        <time>2022-05-13T15:22:57Z</time>
      </trkpt>
      <trkpt lat="48.69231" lon="-3.98373">
        <ele>46</ele>
        <time>2022-05-13T15:23:10Z</time>
      </trkpt>
      <trkpt lat="48.69247" lon="-3.98362">
        <ele>45</ele>
        <time>2022-05-13T15:23:13Z</time>
      </trkpt>
      <trkpt lat="48.69273" lon="-3.98358">
        <ele>45</ele>
        <time>2022-05-13T15:23:18Z</time>
      </trkpt>
      <trkpt lat="48.69294" lon="-3.98351">
        <ele>45</ele>
        <time>2022-05-13T15:23:22Z</time>
      </trkpt>
      <trkpt lat="48.69304" lon="-3.98344">
        <ele>45</ele>
        <time>2022-05-13T15:23:24Z</time>
      </trkpt>
      <trkpt lat="48.6934" lon="-3.98305">
        <ele>45</ele>
        <time>2022-05-13T15:23:31Z</time>
      </trkpt>
      <trkpt lat="48.69372" lon="-3.98288">
        <ele>43</ele>
        <time>2022-05-13T15:23:38Z</time>
      </trkpt>
      <trkpt lat="48.69418" lon="-3.98276">
        <ele>41</ele>
        <time>2022-05-13T15:23:46Z</time>
      </trkpt>
      <trkpt lat="48.6947" lon="-3.98276">
        <ele>37</ele>
        <time>2022-05-13T15:23:55Z</time>
      </trkpt>
      <trkpt lat="48.69509" lon="-3.98261">
        <ele>34</ele>
        <time>2022-05-13T15:24:02Z</time>
      </trkpt>
      <trkpt lat="48.69545" lon="-3.98252">
        <ele>29</ele>
        <time>2022-05-13T15:24:09Z</time>
      </trkpt>
      <trkpt lat="48.69596" lon="-3.98276">
        <ele>27</ele>
        <time>2022-05-13T15:24:18Z</time>
      </trkpt>
      <trkpt lat="48.69622" lon="-3.9828">
        <ele>26</ele>
        <time>2022-05-13T15:24:23Z</time>
      </trkpt>
      <trkpt lat="48.6965" lon="-3.98275">
        <ele>24</ele>
        <time>2022-05-13T15:24:28Z</time>
      </trkpt>
      <trkpt lat="48.69678" lon="-3.98282">
        <ele>22</ele>
        <time>2022-05-13T15:24:33Z</time>
      </trkpt>
      <trkpt lat="48.69687" lon="-3.9828">
        <ele>21</ele>
        <time>2022-05-13T15:24:35Z</time>
      </trkpt>
      <trkpt lat="48.69757" lon="-3.98253">
        <ele>14</ele>
        <time>2022-05-13T15:24:47Z</time>
      </trkpt>
      <trkpt lat="48.69812" lon="-3.98212">
        <ele>14</ele>
        <time>2022-05-13T15:24:58Z</time>
      </trkpt>
      <trkpt lat="48.69828" lon="-3.98195">
        <ele>14</ele>
        <time>2022-05-13T15:25:02Z</time>
      </trkpt>
      <trkpt lat="48.69845" lon="-3.98187">
        <ele>14</ele>
        <time>2022-05-13T15:25:05Z</time>
      </trkpt>
      <trkpt lat="48.69888" lon="-3.98156">
        <ele>18</ele>
        <time>2022-05-13T15:25:13Z</time>
      </trkpt>
      <trkpt lat="48.69912" lon="-3.98177">
        <ele>20</ele>
        <time>2022-05-13T15:25:18Z</time>
      </trkpt>
      <trkpt lat="48.69939" lon="-3.98193">
        <ele>23</ele>
        <time>2022-05-13T15:25:24Z</time>
      </trkpt>
      <trkpt lat="48.69964" lon="-3.982">
        <ele>26</ele>
        <time>2022-05-13T15:25:28Z</time>
      </trkpt>
      <trkpt lat="48.70015" lon="-3.98202">
        <ele>31</ele>
        <time>2022-05-13T15:25:37Z</time>
      </trkpt>
      <trkpt lat="48.70051" lon="-3.98189">
        <ele>34</ele>
        <time>2022-05-13T15:25:44Z</time>
      </trkpt>
      <trkpt lat="48.70118" lon="-3.98193">
        <ele>36</ele>
        <time>2022-05-13T15:25:56Z</time>
      </trkpt>
      <trkpt lat="48.70138" lon="-3.982">
        <ele>36</ele>
        <time>2022-05-13T15:25:59Z</time>
      </trkpt>
      <trkpt lat="48.70157" lon="-3.98203">
        <ele>36</ele>
        <time>2022-05-13T15:26:03Z</time>
      </trkpt>
      <trkpt lat="48.70175" lon="-3.98198">
        <ele>36</ele>
        <time>2022-05-13T15:26:06Z</time>
      </trkpt>
      <trkpt lat="48.7019" lon="-3.98189">
        <ele>37</ele>
        <time>2022-05-13T15:26:09Z</time>
      </trkpt>
      <trkpt lat="48.70205" lon="-3.98187">
        <ele>37</ele>
        <time>2022-05-13T15:26:11Z</time>
      </trkpt>
      <trkpt lat="48.70238" lon="-3.98194">
        <ele>37</ele>
        <time>2022-05-13T15:26:17Z</time>
      </trkpt>
      <trkpt lat="48.70268" lon="-3.98218">
        <ele>37</ele>
        <time>2022-05-13T15:26:23Z</time>
      </trkpt>
      <trkpt lat="48.70268" lon="-3.98204">
        <ele>37</ele>
        <time>2022-05-13T15:26:25Z</time>
      </trkpt>
      <trkpt lat="48.70282" lon="-3.98121">
        <ele>37</ele>
        <time>2022-05-13T15:26:35Z</time>
      </trkpt>
      <trkpt lat="48.7029" lon="-3.98048">
        <ele>37</ele>
        <time>2022-05-13T15:26:44Z</time>
      </trkpt>
      <trkpt lat="48.70306" lon="-3.97999">
        <ele>36</ele>
        <time>2022-05-13T15:26:50Z</time>
      </trkpt>
      <trkpt lat="48.70315" lon="-3.97984">
        <ele>36</ele>
        <time>2022-05-13T15:26:53Z</time>
      </trkpt>
      <trkpt lat="48.70327" lon="-3.97977">
        <ele>36</ele>
        <time>2022-05-13T15:26:55Z</time>
      </trkpt>
      <trkpt lat="48.70357" lon="-3.97974">
        <ele>35</ele>
        <time>2022-05-13T15:27:00Z</time>
      </trkpt>
      <trkpt lat="48.70369" lon="-3.97969">
        <ele>35</ele>
        <time>2022-05-13T15:27:03Z</time>
      </trkpt>
      <trkpt lat="48.70378" lon="-3.97959">
        <ele>35</ele>
        <time>2022-05-13T15:27:04Z</time>
      </trkpt>
      <trkpt lat="48.70393" lon="-3.97935">
        <ele>35</ele>
        <time>2022-05-13T15:27:08Z</time>
      </trkpt>
      <trkpt lat="48.70404" lon="-3.97908">
        <ele>35</ele>
        <time>2022-05-13T15:27:12Z</time>
      </trkpt>
      <trkpt lat="48.70439" lon="-3.9795">
        <ele>34</ele>
        <time>2022-05-13T15:27:20Z</time>
      </trkpt>
      <trkpt lat="48.70448" lon="-3.97965">
        <ele>33</ele>
        <time>2022-05-13T15:27:22Z</time>
      </trkpt>
      <trkpt lat="48.70454" lon="-3.97982">
        <ele>33</ele>
        <time>2022-05-13T15:27:25Z</time>
      </trkpt>
      <trkpt lat="48.70463" lon="-3.97992">
        <ele>32</ele>
        <time>2022-05-13T15:27:27Z</time>
      </trkpt>
      <trkpt lat="48.70476" lon="-3.97999">
        <ele>32</ele>
        <time>2022-05-13T15:27:29Z</time>
      </trkpt>
      <trkpt lat="48.70499" lon="-3.98006">
        <ele>31</ele>
        <time>2022-05-13T15:27:33Z</time>
      </trkpt>
      <trkpt lat="48.7052" lon="-3.98018">
        <ele>30</ele>
        <time>2022-05-13T15:27:37Z</time>
      </trkpt>
      <trkpt lat="48.70535" lon="-3.9802">
        <ele>28</ele>
        <time>2022-05-13T15:27:40Z</time>
      </trkpt>
      <trkpt lat="48.70572" lon="-3.9804">
        <ele>26</ele>
        <time>2022-05-13T15:27:47Z</time>
      </trkpt>
      <trkpt lat="48.70576" lon="-3.9804">
        <ele>26</ele>
        <time>2022-05-13T15:27:48Z</time>
      </trkpt>
      <trkpt lat="48.7059" lon="-3.98017">
        <ele>24</ele>
        <time>2022-05-13T15:27:51Z</time>
      </trkpt>
      <trkpt lat="48.706" lon="-3.98011">
        <ele>24</ele>
        <time>2022-05-13T15:27:53Z</time>
      </trkpt>
      <trkpt lat="48.70613" lon="-3.98009">
        <ele>25</ele>
        <time>2022-05-13T15:27:56Z</time>
      </trkpt>
      <trkpt lat="48.70626" lon="-3.98018">
        <ele>25</ele>
        <time>2022-05-13T15:27:58Z</time>
      </trkpt>
      <trkpt lat="48.70637" lon="-3.98023">
        <ele>25</ele>
        <time>2022-05-13T15:28:00Z</time>
      </trkpt>
      <trkpt lat="48.7064" lon="-3.98022">
        <ele>25</ele>
        <time>2022-05-13T15:28:01Z</time>
      </trkpt>
      <trkpt lat="48.70644" lon="-3.98019">
        <ele>25</ele>
        <time>2022-05-13T15:28:02Z</time>
      </trkpt>
      <trkpt lat="48.70655" lon="-3.9798">
        <ele>25</ele>
        <time>2022-05-13T15:28:06Z</time>
      </trkpt>
      <trkpt lat="48.70658" lon="-3.97976">
        <ele>25</ele>
        <time>2022-05-13T15:28:07Z</time>
      </trkpt>
      <trkpt lat="48.70701" lon="-3.97994">
        <ele>25</ele>
        <time>2022-05-13T15:28:15Z</time>
      </trkpt>
      <trkpt lat="48.70743" lon="-3.98">
        <ele>26</ele>
        <time>2022-05-13T15:28:23Z</time>
      </trkpt>
      <trkpt lat="48.70753" lon="-3.97997">
        <ele>26</ele>
        <time>2022-05-13T15:28:24Z</time>
      </trkpt>
      <trkpt lat="48.70763" lon="-3.9799">
        <ele>26</ele>
        <time>2022-05-13T15:28:26Z</time>
      </trkpt>
      <trkpt lat="48.70815" lon="-3.97919">
        <ele>25</ele>
        <time>2022-05-13T15:28:39Z</time>
      </trkpt>
      <trkpt lat="48.7084" lon="-3.97882">
        <ele>24</ele>
        <time>2022-05-13T15:28:45Z</time>
      </trkpt>
      <trkpt lat="48.70844" lon="-3.97871">
        <ele>23</ele>
        <time>2022-05-13T15:28:47Z</time>
      </trkpt>
      <trkpt lat="48.70831" lon="-3.97665">
        <ele>17</ele>
        <time>2022-05-13T15:29:11Z</time>
      </trkpt>
      <trkpt lat="48.70832" lon="-3.97628">
        <ele>15</ele>
        <time>2022-05-13T15:29:15Z</time>
      </trkpt>
      <trkpt lat="48.7086" lon="-3.97638">
        <ele>16</ele>
        <time>2022-05-13T15:29:20Z</time>
      </trkpt>
      <trkpt lat="48.70906" lon="-3.97666">
        <ele>18</ele>
        <time>2022-05-13T15:29:29Z</time>
      </trkpt>
      <trkpt lat="48.70931" lon="-3.97673">
        <ele>19</ele>
        <time>2022-05-13T15:29:34Z</time>
      </trkpt>
      <trkpt lat="48.70961" lon="-3.97677">
        <ele>21</ele>
        <time>2022-05-13T15:29:39Z</time>
      </trkpt>
      <trkpt lat="48.70999" lon="-3.97676">
        <ele>23</ele>
        <time>2022-05-13T15:29:46Z</time>
      </trkpt>
      <trkpt lat="48.71091" lon="-3.97556">
        <ele>25</ele>
        <time>2022-05-13T15:30:07Z</time>
      </trkpt>
      <trkpt lat="48.71122" lon="-3.97427">
        <ele>18</ele>
        <time>2022-05-13T15:30:24Z</time>
      </trkpt>
      <trkpt lat="48.71134" lon="-3.97387">
        <ele>17</ele>
        <time>2022-05-13T15:30:29Z</time>
      </trkpt>
      <trkpt lat="48.71141" lon="-3.97378">
        <ele>17</ele>
        <time>2022-05-13T15:30:30Z</time>
      </trkpt>
      <trkpt lat="48.71151" lon="-3.97372">
        <ele>17</ele>
        <time>2022-05-13T15:30:32Z</time>
      </trkpt>
      <trkpt lat="48.71182" lon="-3.97377">
        <ele>20</ele>
        <time>2022-05-13T15:30:38Z</time>
      </trkpt>
      <trkpt lat="48.71196" lon="-3.97383">
        <ele>22</ele>
        <time>2022-05-13T15:30:40Z</time>
      </trkpt>
      <trkpt lat="48.7121" lon="-3.97398">
        <ele>24</ele>
        <time>2022-05-13T15:30:43Z</time>
      </trkpt>
      <trkpt lat="48.71215" lon="-3.97407">
        <ele>25</ele>
        <time>2022-05-13T15:30:45Z</time>
      </trkpt>
      <trkpt lat="48.7122" lon="-3.9741">
        <ele>25</ele>
        <time>2022-05-13T15:30:46Z</time>
      </trkpt>
      <trkpt lat="48.71234" lon="-3.97399">
        <ele>26</ele>
        <time>2022-05-13T15:30:49Z</time>
      </trkpt>
      <trkpt lat="48.71237" lon="-3.974">
        <ele>26</ele>
        <time>2022-05-13T15:30:49Z</time>
      </trkpt>
      <trkpt lat="48.71242" lon="-3.97409">
        <ele>27</ele>
        <time>2022-05-13T15:30:50Z</time>
      </trkpt>
      <trkpt lat="48.71258" lon="-3.97471">
        <ele>30</ele>
        <time>2022-05-13T15:30:58Z</time>
      </trkpt>
      <trkpt lat="48.71277" lon="-3.97486">
        <ele>30</ele>
        <time>2022-05-13T15:31:02Z</time>
      </trkpt>
      <trkpt lat="48.71312" lon="-3.97489">
        <ele>30</ele>
        <time>2022-05-13T15:31:08Z</time>
      </trkpt>
      <trkpt lat="48.71326" lon="-3.97496">
        <ele>30</ele>
        <time>2022-05-13T15:31:11Z</time>
      </trkpt>
      <trkpt lat="48.71337" lon="-3.97498">
        <ele>30</ele>
        <time>2022-05-13T15:31:13Z</time>
      </trkpt>
      <trkpt lat="48.71361" lon="-3.97497">
        <ele>29</ele>
        <time>2022-05-13T15:31:17Z</time>
      </trkpt>
      <trkpt lat="48.71396" lon="-3.97514">
        <ele>28</ele>
        <time>2022-05-13T15:31:24Z</time>
      </trkpt>
      <trkpt lat="48.71403" lon="-3.97515">
        <ele>28</ele>
        <time>2022-05-13T15:31:25Z</time>
      </trkpt>
      <trkpt lat="48.71409" lon="-3.97505">
        <ele>27</ele>
        <time>2022-05-13T15:31:27Z</time>
      </trkpt>
      <trkpt lat="48.71421" lon="-3.9743">
        <ele>23</ele>
        <time>2022-05-13T15:31:36Z</time>
      </trkpt>
      <trkpt lat="48.71424" lon="-3.97381">
        <ele>20</ele>
        <time>2022-05-13T15:31:41Z</time>
      </trkpt>
      <trkpt lat="48.7142" lon="-3.97338">
        <ele>17</ele>
        <time>2022-05-13T15:31:47Z</time>
      </trkpt>
      <trkpt lat="48.71423" lon="-3.97332">
        <ele>17</ele>
        <time>2022-05-13T15:31:47Z</time>
      </trkpt>
      <trkpt lat="48.71502" lon="-3.97263">
        <ele>16</ele>
        <time>2022-05-13T15:32:04Z</time>
      </trkpt>
      <trkpt lat="48.71559" lon="-3.97222">
        <ele>16</ele>
        <time>2022-05-13T15:32:15Z</time>
      </trkpt>
      <trkpt lat="48.71582" lon="-3.9721">
        <ele>16</ele>
        <time>2022-05-13T15:32:19Z</time>
      </trkpt>
      <trkpt lat="48.71596" lon="-3.97211">
        <ele>16</ele>
        <time>2022-05-13T15:32:22Z</time>
      </trkpt>
      <trkpt lat="48.71679" lon="-3.97262">
        <ele>19</ele>
        <time>2022-05-13T15:32:38Z</time>
      </trkpt>
      <trkpt lat="48.7169" lon="-3.97279">
        <ele>20</ele>
        <time>2022-05-13T15:32:40Z</time>
      </trkpt>
      <trkpt lat="48.71701" lon="-3.97271">
        <ele>20</ele>
        <time>2022-05-13T15:32:43Z</time>
      </trkpt>
      <trkpt lat="48.71719" lon="-3.97235">
        <ele>19</ele>
        <time>2022-05-13T15:32:48Z</time>
      </trkpt>
      <trkpt lat="48.71722" lon="-3.97222">
        <ele>18</ele>
        <time>2022-05-13T15:32:49Z</time>
      </trkpt>
      <trkpt lat="48.71768" lon="-3.97236">
        <ele>19</ele>
        <time>2022-05-13T15:32:58Z</time>
      </trkpt>
      <trkpt lat="48.71795" lon="-3.97238">
        <ele>19</ele>
        <time>2022-05-13T15:33:03Z</time>
      </trkpt>
      <trkpt lat="48.7181" lon="-3.97216">
        <ele>18</ele>
        <time>2022-05-13T15:33:06Z</time>
      </trkpt>
      <trkpt lat="48.71816" lon="-3.97213">
        <ele>18</ele>
        <time>2022-05-13T15:33:07Z</time>
      </trkpt>
      <trkpt lat="48.71829" lon="-3.97219">
        <ele>19</ele>
        <time>2022-05-13T15:33:10Z</time>
      </trkpt>
      <trkpt lat="48.71885" lon="-3.97259">
        <ele>19</ele>
        <time>2022-05-13T15:33:21Z</time>
      </trkpt>
      <trkpt lat="48.71892" lon="-3.97256">
        <ele>19</ele>
        <time>2022-05-13T15:33:22Z</time>
      </trkpt>
      <trkpt lat="48.71901" lon="-3.97243">
        <ele>19</ele>
        <time>2022-05-13T15:33:24Z</time>
      </trkpt>
      <trkpt lat="48.719" lon="-3.97249">
        <ele>19</ele>
        <time>2021-03-02T13:13:18Z</time>
      </trkpt>
      <trkpt lat="48.71898" lon="-3.97247">
        <ele>19</ele>
        <time>2021-03-02T13:13:18Z</time>
      </trkpt>
      <trkpt lat="48.71906" lon="-3.97234">
        <ele>19</ele>
        <time>2021-03-02T13:13:21Z</time>
      </trkpt>
      <trkpt lat="48.71919" lon="-3.97218">
        <ele>19</ele>
        <time>2021-03-02T13:13:23Z</time>
      </trkpt>
      <trkpt lat="48.71954" lon="-3.97181">
        <ele>20</ele>
        <time>2021-03-02T13:13:31Z</time>
      </trkpt>
      <trkpt lat="48.71976" lon="-3.97164">
        <ele>21</ele>
        <time>2021-03-02T13:13:35Z</time>
      </trkpt>
      <trkpt lat="48.71994" lon="-3.97154">
        <ele>21</ele>
        <time>2021-03-02T13:13:39Z</time>
      </trkpt>
      <trkpt lat="48.72019" lon="-3.97144">
        <ele>21</ele>
        <time>2021-03-02T13:13:43Z</time>
      </trkpt>
      <trkpt lat="48.72054" lon="-3.97133">
        <ele>21</ele>
        <time>2021-03-02T13:13:50Z</time>
      </trkpt>
      <trkpt lat="48.722" lon="-3.9711">
        <ele>18</ele>
        <time>2021-03-02T13:14:16Z</time>
      </trkpt>
      <trkpt lat="48.72253" lon="-3.97105">
        <ele>16</ele>
        <time>2021-03-02T13:14:25Z</time>
      </trkpt>
      <trkpt lat="48.72383" lon="-3.97143">
        <ele>15</ele>
        <time>2021-03-02T13:14:49Z</time>
      </trkpt>
      <trkpt lat="48.72427" lon="-3.9715">
        <ele>14</ele>
        <time>2021-03-02T13:14:57Z</time>
      </trkpt>
      <trkpt lat="48.72469" lon="-3.97153">
        <ele>12</ele>
        <time>2021-03-02T13:15:04Z</time>
      </trkpt>
      <trkpt lat="48.72467" lon="-3.97217">
        <ele>10</ele>
        <time>2021-03-02T13:15:12Z</time>
      </trkpt>
      <trkpt lat="48.72458" lon="-3.97263">
        <ele>8</ele>
        <time>2021-03-02T13:15:17Z</time>
      </trkpt>
      <trkpt lat="48.72453" lon="-3.97297">
        <ele>7</ele>
        <time>2021-03-02T13:15:22Z</time>
      </trkpt>
      <trkpt lat="48.72452" lon="-3.97357">
        <ele>4</ele>
        <time>2021-03-02T13:15:29Z</time>
      </trkpt>
      <trkpt lat="48.72455" lon="-3.97385">
        <ele>4</ele>
        <time>2021-03-02T13:15:32Z</time>
      </trkpt>
      <trkpt lat="48.72455" lon="-3.97411">
        <ele>3</ele>
        <time>2021-03-02T13:15:35Z</time>
      </trkpt>
      <trkpt lat="48.7245" lon="-3.97418">
        <ele>3</ele>
        <time>2021-03-02T13:15:36Z</time>
      </trkpt>
      <trkpt lat="48.72442" lon="-3.97421">
        <ele>3</ele>
        <time>2021-03-02T13:15:38Z</time>
      </trkpt>
      <trkpt lat="48.72387" lon="-3.97401">
        <ele>6</ele>
        <time>2021-03-02T13:15:48Z</time>
      </trkpt>
      <trkpt lat="48.72373" lon="-3.97403">
        <ele>7</ele>
        <time>2021-03-02T13:15:50Z</time>
      </trkpt>
      <trkpt lat="48.72347" lon="-3.97427">
        <ele>7</ele>
        <time>2021-03-02T13:15:56Z</time>
      </trkpt>
      <trkpt lat="48.72339" lon="-3.9744">
        <ele>7</ele>
        <time>2021-03-02T13:15:58Z</time>
      </trkpt>
      <trkpt lat="48.72313" lon="-3.97462">
        <ele>8</ele>
        <time>2021-03-02T13:16:03Z</time>
      </trkpt>
      <trkpt lat="48.72262" lon="-3.9749">
        <ele>12</ele>
        <time>2021-03-02T13:16:13Z</time>
      </trkpt>
      <trkpt lat="48.72256" lon="-3.97504">
        <ele>12</ele>
        <time>2021-03-02T13:16:15Z</time>
      </trkpt>
      <trkpt lat="48.72248" lon="-3.97534">
        <ele>12</ele>
        <time>2021-03-02T13:16:18Z</time>
      </trkpt>
      <trkpt lat="48.72236" lon="-3.97622">
        <ele>9</ele>
        <time>2021-03-02T13:16:29Z</time>
      </trkpt>
      <trkpt lat="48.72225" lon="-3.97636">
        <ele>9</ele>
        <time>2021-03-02T13:16:32Z</time>
      </trkpt>
      <trkpt lat="48.72217" lon="-3.97655">
        <ele>9</ele>
        <time>2021-03-02T13:16:34Z</time>
      </trkpt>
      <trkpt lat="48.72215" lon="-3.97667">
        <ele>9</ele>
        <time>2021-03-02T13:16:36Z</time>
      </trkpt>
      <trkpt lat="48.72205" lon="-3.97711">
        <ele>8</ele>
        <time>2021-03-02T13:16:41Z</time>
      </trkpt>
      <trkpt lat="48.72202" lon="-3.97761">
        <ele>7</ele>
        <time>2021-03-02T13:16:47Z</time>
      </trkpt>
      <trkpt lat="48.72202" lon="-3.97811">
        <ele>7</ele>
        <time>2021-03-02T13:16:53Z</time>
      </trkpt>
      <trkpt lat="48.7221" lon="-3.97842">
        <ele>6</ele>
        <time>2021-03-02T13:16:57Z</time>
      </trkpt>
      <trkpt lat="48.72228" lon="-3.97935">
        <ele>5</ele>
        <time>2021-03-02T13:17:08Z</time>
      </trkpt>
      <trkpt lat="48.72247" lon="-3.98011">
        <ele>6</ele>
        <time>2021-03-02T13:17:18Z</time>
      </trkpt>
      <trkpt lat="48.72278" lon="-3.98065">
        <ele>6</ele>
        <time>2021-03-02T13:17:26Z</time>
      </trkpt>
      <trkpt lat="48.72334" lon="-3.98155">
        <ele>7</ele>
        <time>2021-03-02T13:17:41Z</time>
      </trkpt>
      <trkpt lat="48.72363" lon="-3.98184">
        <ele>6</ele>
        <time>2021-03-02T13:17:47Z</time>
      </trkpt>
      <trkpt lat="48.7235" lon="-3.98217">
        <ele>7</ele>
        <time>2021-03-02T13:17:51Z</time>
      </trkpt>
      <trkpt lat="48.72382" lon="-3.98255">
        <ele>7</ele>
        <time>2021-03-02T13:17:59Z</time>
      </trkpt>
      <trkpt lat="48.72388" lon="-3.98263">
        <ele>7</ele>
        <time>2021-03-02T13:18:00Z</time>
      </trkpt>
      <trkpt lat="48.72414" lon="-3.98291">
        <ele>8</ele>
        <time>2021-03-02T13:18:06Z</time>
      </trkpt>
      <trkpt lat="48.72442" lon="-3.98313">
        <ele>8</ele>
        <time>2021-03-02T13:18:11Z</time>
      </trkpt>
      <trkpt lat="48.72478" lon="-3.98333">
        <ele>8</ele>
        <time>2021-03-02T13:18:18Z</time>
      </trkpt>
      <trkpt lat="48.72492" lon="-3.98338">
        <ele>8</ele>
        <time>2021-03-02T13:18:21Z</time>
      </trkpt>
      <trkpt lat="48.72508" lon="-3.98339">
        <ele>8</ele>
        <time>2021-03-02T13:18:23Z</time>
      </trkpt>
      <trkpt lat="48.72523" lon="-3.98336">
        <ele>8</ele>
        <time>2021-03-02T13:18:26Z</time>
      </trkpt>
      <trkpt lat="48.72519" lon="-3.98436">
        <ele>7</ele>
        <time>2021-03-02T13:18:38Z</time>
      </trkpt>
      <trkpt lat="48.72515" lon="-3.98452">
        <ele>6</ele>
        <time>2021-03-02T13:18:40Z</time>
      </trkpt>
    </trkseg>
  </trk>
</gpx>